<?xml version="1.0" encoding="UTF-8" standalone="no" ?>
<gpx xmlns="http://www.topografix.com/GPX/1/1" xmlns:xsi="http://www.w3.org/2001/XMLSchema-instance" xsi:schemaLocation="http://www.topografix.com/GPX/1/1 http://www.topografix.com/GPX/1/1/gpx.xsd" version="1.1" creator="VisuGPX - https://www.visugpx.com">
  <metadata>
    <name>Rando du 2023-04-27-46-Cambayrac</name>
    <desc><![CDATA[Randonnée de 11km pour 170m de dénivelé positif Pas de difficulté pour ce circuit qui vous emmène vers Trébaix, petite grotte à découvrir sur ce parcours]]></desc>
  </metadata>
  <trk>
    <name><![CDATA[Rando du 27-04-23-16505675]]></name>
    <trkseg>
      <trkpt lat="44.42773" lon="1.28587">
        <ele>265</ele>
        <time>2023-04-25T09:30:19Z</time>
      </trkpt>
      <trkpt lat="44.42769" lon="1.28594">
        <ele>264</ele>
        <time>2023-04-25T09:30:28Z</time>
      </trkpt>
      <trkpt lat="44.42776" lon="1.28588">
        <ele>265</ele>
        <time>2023-04-25T09:30:38Z</time>
      </trkpt>
      <trkpt lat="44.42773" lon="1.28589">
        <ele>264</ele>
        <time>2023-04-25T09:30:43Z</time>
      </trkpt>
      <trkpt lat="44.42768" lon="1.28585">
        <ele>265</ele>
        <time>2023-04-25T09:30:50Z</time>
      </trkpt>
      <trkpt lat="44.42763" lon="1.28564">
        <ele>265</ele>
        <time>2023-04-25T09:31:11Z</time>
      </trkpt>
      <trkpt lat="44.42774" lon="1.28569">
        <ele>265</ele>
        <time>2023-04-25T09:31:27Z</time>
      </trkpt>
      <trkpt lat="44.42776" lon="1.28568">
        <ele>265</ele>
        <time>2023-04-25T09:31:30Z</time>
      </trkpt>
      <trkpt lat="44.42775" lon="1.28558">
        <ele>265</ele>
        <time>2023-04-25T09:31:39Z</time>
      </trkpt>
      <trkpt lat="44.4277" lon="1.28557">
        <ele>265</ele>
        <time>2023-04-25T09:31:46Z</time>
      </trkpt>
      <trkpt lat="44.42768" lon="1.28552">
        <ele>265</ele>
        <time>2023-04-25T09:31:51Z</time>
      </trkpt>
      <trkpt lat="44.42755" lon="1.28546">
        <ele>266</ele>
        <time>2023-04-25T09:32:10Z</time>
      </trkpt>
      <trkpt lat="44.42742" lon="1.28551">
        <ele>266</ele>
        <time>2023-04-25T09:32:28Z</time>
      </trkpt>
      <trkpt lat="44.42738" lon="1.28555">
        <ele>265</ele>
        <time>2023-04-25T09:32:34Z</time>
      </trkpt>
      <trkpt lat="44.42724" lon="1.28558">
        <ele>265</ele>
        <time>2023-04-25T09:32:53Z</time>
      </trkpt>
      <trkpt lat="44.42714" lon="1.28566">
        <ele>264</ele>
        <time>2023-04-25T09:33:09Z</time>
      </trkpt>
      <trkpt lat="44.42707" lon="1.28567">
        <ele>264</ele>
        <time>2023-04-25T09:33:18Z</time>
      </trkpt>
      <trkpt lat="44.42705" lon="1.28565">
        <ele>264</ele>
        <time>2023-04-25T09:33:21Z</time>
      </trkpt>
      <trkpt lat="44.42698" lon="1.28567">
        <ele>264</ele>
        <time>2023-04-25T09:33:31Z</time>
      </trkpt>
      <trkpt lat="44.42691" lon="1.28565">
        <ele>264</ele>
        <time>2023-04-25T09:33:40Z</time>
      </trkpt>
      <trkpt lat="44.42682" lon="1.28555">
        <ele>264</ele>
        <time>2023-04-25T09:33:56Z</time>
      </trkpt>
      <trkpt lat="44.42679" lon="1.28555">
        <ele>264</ele>
        <time>2023-04-25T09:34:00Z</time>
      </trkpt>
      <trkpt lat="44.42666" lon="1.28527">
        <ele>266</ele>
        <time>2023-04-25T09:34:31Z</time>
      </trkpt>
      <trkpt lat="44.42663" lon="1.28509">
        <ele>268</ele>
        <time>2023-04-25T09:34:49Z</time>
      </trkpt>
      <trkpt lat="44.42655" lon="1.28487">
        <ele>268</ele>
        <time>2023-04-25T09:35:13Z</time>
      </trkpt>
      <trkpt lat="44.42654" lon="1.28489">
        <ele>268</ele>
        <time>2023-04-25T09:35:15Z</time>
      </trkpt>
      <trkpt lat="44.42657" lon="1.28489">
        <ele>268</ele>
        <time>2023-04-25T09:35:19Z</time>
      </trkpt>
      <trkpt lat="44.42658" lon="1.28508">
        <ele>268</ele>
        <time>2023-04-25T09:35:37Z</time>
      </trkpt>
      <trkpt lat="44.42665" lon="1.28522">
        <ele>267</ele>
        <time>2023-04-25T09:35:53Z</time>
      </trkpt>
      <trkpt lat="44.42669" lon="1.28523">
        <ele>267</ele>
        <time>2023-04-25T09:35:59Z</time>
      </trkpt>
      <trkpt lat="44.42666" lon="1.28535">
        <ele>266</ele>
        <time>2023-04-25T09:36:11Z</time>
      </trkpt>
      <trkpt lat="44.42675" lon="1.2855">
        <ele>264</ele>
        <time>2023-04-25T09:36:30Z</time>
      </trkpt>
      <trkpt lat="44.42675" lon="1.28566">
        <ele>263</ele>
        <time>2023-04-25T09:36:45Z</time>
      </trkpt>
      <trkpt lat="44.42657" lon="1.28578">
        <ele>261</ele>
        <time>2023-04-25T09:37:11Z</time>
      </trkpt>
      <trkpt lat="44.42649" lon="1.28579">
        <ele>260</ele>
        <time>2023-04-25T09:37:22Z</time>
      </trkpt>
      <trkpt lat="44.42645" lon="1.28584">
        <ele>260</ele>
        <time>2023-04-25T09:37:29Z</time>
      </trkpt>
      <trkpt lat="44.42603" lon="1.28657">
        <ele>253</ele>
        <time>2023-04-25T09:38:59Z</time>
      </trkpt>
      <trkpt lat="44.42579" lon="1.28691">
        <ele>252</ele>
        <time>2023-04-25T09:39:44Z</time>
      </trkpt>
      <trkpt lat="44.42574" lon="1.28693">
        <ele>253</ele>
        <time>2023-04-25T09:39:51Z</time>
      </trkpt>
      <trkpt lat="44.42565" lon="1.28705">
        <ele>253</ele>
        <time>2023-04-25T09:40:08Z</time>
      </trkpt>
      <trkpt lat="44.42557" lon="1.28731">
        <ele>254</ele>
        <time>2023-04-25T09:40:35Z</time>
      </trkpt>
      <trkpt lat="44.42554" lon="1.28791">
        <ele>252</ele>
        <time>2023-04-25T09:41:32Z</time>
      </trkpt>
      <trkpt lat="44.42551" lon="1.28802">
        <ele>252</ele>
        <time>2023-04-25T09:41:43Z</time>
      </trkpt>
      <trkpt lat="44.42541" lon="1.28819">
        <ele>252</ele>
        <time>2023-04-25T09:42:04Z</time>
      </trkpt>
      <trkpt lat="44.42532" lon="1.28828">
        <ele>252</ele>
        <time>2023-04-25T09:42:19Z</time>
      </trkpt>
      <trkpt lat="44.42526" lon="1.28831">
        <ele>252</ele>
        <time>2023-04-25T09:42:28Z</time>
      </trkpt>
      <trkpt lat="44.42521" lon="1.2883">
        <ele>252</ele>
        <time>2023-04-25T09:42:34Z</time>
      </trkpt>
      <trkpt lat="44.42515" lon="1.28835">
        <ele>251</ele>
        <time>2023-04-25T09:42:44Z</time>
      </trkpt>
      <trkpt lat="44.42508" lon="1.28836">
        <ele>251</ele>
        <time>2023-04-25T09:42:53Z</time>
      </trkpt>
      <trkpt lat="44.42497" lon="1.28843">
        <ele>251</ele>
        <time>2023-04-25T09:43:09Z</time>
      </trkpt>
      <trkpt lat="44.42481" lon="1.28857">
        <ele>250</ele>
        <time>2023-04-25T09:43:34Z</time>
      </trkpt>
      <trkpt lat="44.42462" lon="1.28867">
        <ele>249</ele>
        <time>2023-04-25T09:44:01Z</time>
      </trkpt>
      <trkpt lat="44.4244" lon="1.28889">
        <ele>246</ele>
        <time>2023-04-25T09:44:37Z</time>
      </trkpt>
      <trkpt lat="44.42421" lon="1.28897">
        <ele>245</ele>
        <time>2023-04-25T09:45:04Z</time>
      </trkpt>
      <trkpt lat="44.42399" lon="1.28917">
        <ele>241</ele>
        <time>2023-04-25T09:45:39Z</time>
      </trkpt>
      <trkpt lat="44.42389" lon="1.28923">
        <ele>241</ele>
        <time>2023-04-25T09:45:53Z</time>
      </trkpt>
      <trkpt lat="44.4237" lon="1.28928">
        <ele>241</ele>
        <time>2023-04-25T09:46:19Z</time>
      </trkpt>
      <trkpt lat="44.4236" lon="1.28927">
        <ele>241</ele>
        <time>2023-04-25T09:46:33Z</time>
      </trkpt>
      <trkpt lat="44.42353" lon="1.2893">
        <ele>241</ele>
        <time>2023-04-25T09:46:42Z</time>
      </trkpt>
      <trkpt lat="44.4234" lon="1.28931">
        <ele>241</ele>
        <time>2023-04-25T09:47:00Z</time>
      </trkpt>
      <trkpt lat="44.42335" lon="1.28929">
        <ele>241</ele>
        <time>2023-04-25T09:47:07Z</time>
      </trkpt>
      <trkpt lat="44.42331" lon="1.2893">
        <ele>241</ele>
        <time>2023-04-25T09:47:12Z</time>
      </trkpt>
      <trkpt lat="44.42331" lon="1.28933">
        <ele>241</ele>
        <time>2023-04-25T09:47:15Z</time>
      </trkpt>
      <trkpt lat="44.42316" lon="1.28936">
        <ele>241</ele>
        <time>2023-04-25T09:47:35Z</time>
      </trkpt>
      <trkpt lat="44.42307" lon="1.28941">
        <ele>240</ele>
        <time>2023-04-25T09:47:48Z</time>
      </trkpt>
      <trkpt lat="44.42303" lon="1.28947">
        <ele>240</ele>
        <time>2023-04-25T09:47:56Z</time>
      </trkpt>
      <trkpt lat="44.423" lon="1.28962">
        <ele>240</ele>
        <time>2023-04-25T09:48:11Z</time>
      </trkpt>
      <trkpt lat="44.423" lon="1.28983">
        <ele>239</ele>
        <time>2023-04-25T09:48:31Z</time>
      </trkpt>
      <trkpt lat="44.42307" lon="1.28992">
        <ele>238</ele>
        <time>2023-04-25T09:48:43Z</time>
      </trkpt>
      <trkpt lat="44.42313" lon="1.28989">
        <ele>238</ele>
        <time>2023-04-25T09:48:52Z</time>
      </trkpt>
      <trkpt lat="44.42322" lon="1.28991">
        <ele>237</ele>
        <time>2023-04-25T09:49:04Z</time>
      </trkpt>
      <trkpt lat="44.42325" lon="1.29006">
        <ele>236</ele>
        <time>2023-04-25T09:49:19Z</time>
      </trkpt>
      <trkpt lat="44.42334" lon="1.29009">
        <ele>235</ele>
        <time>2023-04-25T09:49:31Z</time>
      </trkpt>
      <trkpt lat="44.42337" lon="1.29015">
        <ele>236</ele>
        <time>2023-04-25T09:49:38Z</time>
      </trkpt>
      <trkpt lat="44.42336" lon="1.2902">
        <ele>236</ele>
        <time>2023-04-25T09:49:43Z</time>
      </trkpt>
      <trkpt lat="44.42316" lon="1.29024">
        <ele>238</ele>
        <time>2023-04-25T09:50:10Z</time>
      </trkpt>
      <trkpt lat="44.42297" lon="1.29042">
        <ele>241</ele>
        <time>2023-04-25T09:50:41Z</time>
      </trkpt>
      <trkpt lat="44.42299" lon="1.2904">
        <ele>241</ele>
        <time>2023-04-25T09:50:44Z</time>
      </trkpt>
      <trkpt lat="44.42292" lon="1.29041">
        <ele>242</ele>
        <time>2023-04-25T09:50:54Z</time>
      </trkpt>
      <trkpt lat="44.42286" lon="1.29045">
        <ele>243</ele>
        <time>2023-04-25T09:51:02Z</time>
      </trkpt>
      <trkpt lat="44.42278" lon="1.29042">
        <ele>244</ele>
        <time>2023-04-25T09:51:13Z</time>
      </trkpt>
      <trkpt lat="44.42268" lon="1.29047">
        <ele>245</ele>
        <time>2023-04-25T09:51:28Z</time>
      </trkpt>
      <trkpt lat="44.42261" lon="1.29046">
        <ele>246</ele>
        <time>2023-04-25T09:51:37Z</time>
      </trkpt>
      <trkpt lat="44.42244" lon="1.29061">
        <ele>249</ele>
        <time>2023-04-25T09:52:04Z</time>
      </trkpt>
      <trkpt lat="44.42232" lon="1.29068">
        <ele>251</ele>
        <time>2023-04-25T09:52:21Z</time>
      </trkpt>
      <trkpt lat="44.42222" lon="1.29069">
        <ele>252</ele>
        <time>2023-04-25T09:52:35Z</time>
      </trkpt>
      <trkpt lat="44.42188" lon="1.29101">
        <ele>256</ele>
        <time>2023-04-25T09:53:29Z</time>
      </trkpt>
      <trkpt lat="44.42184" lon="1.29102">
        <ele>257</ele>
        <time>2023-04-25T09:53:35Z</time>
      </trkpt>
      <trkpt lat="44.42182" lon="1.29108">
        <ele>257</ele>
        <time>2023-04-25T09:53:41Z</time>
      </trkpt>
      <trkpt lat="44.42173" lon="1.29112">
        <ele>258</ele>
        <time>2023-04-25T09:53:54Z</time>
      </trkpt>
      <trkpt lat="44.42169" lon="1.29119">
        <ele>259</ele>
        <time>2023-04-25T09:54:02Z</time>
      </trkpt>
      <trkpt lat="44.42156" lon="1.29121">
        <ele>260</ele>
        <time>2023-04-25T09:54:20Z</time>
      </trkpt>
      <trkpt lat="44.42155" lon="1.29123">
        <ele>260</ele>
        <time>2023-04-25T09:54:22Z</time>
      </trkpt>
      <trkpt lat="44.42158" lon="1.29126">
        <ele>260</ele>
        <time>2023-04-25T09:54:27Z</time>
      </trkpt>
      <trkpt lat="44.42133" lon="1.29132">
        <ele>262</ele>
        <time>2023-04-25T09:55:01Z</time>
      </trkpt>
      <trkpt lat="44.42122" lon="1.29144">
        <ele>264</ele>
        <time>2023-04-25T09:55:19Z</time>
      </trkpt>
      <trkpt lat="44.42078" lon="1.29179">
        <ele>268</ele>
        <time>2023-04-25T09:56:27Z</time>
      </trkpt>
      <trkpt lat="44.42074" lon="1.29188">
        <ele>268</ele>
        <time>2023-04-25T09:56:37Z</time>
      </trkpt>
      <trkpt lat="44.4206" lon="1.29196">
        <ele>269</ele>
        <time>2023-04-25T09:56:57Z</time>
      </trkpt>
      <trkpt lat="44.42046" lon="1.29216">
        <ele>270</ele>
        <time>2023-04-25T09:57:24Z</time>
      </trkpt>
      <trkpt lat="44.42036" lon="1.29225">
        <ele>271</ele>
        <time>2023-04-25T09:57:40Z</time>
      </trkpt>
      <trkpt lat="44.42035" lon="1.29231">
        <ele>271</ele>
        <time>2023-04-25T09:57:45Z</time>
      </trkpt>
      <trkpt lat="44.42031" lon="1.29233">
        <ele>271</ele>
        <time>2023-04-25T09:57:51Z</time>
      </trkpt>
      <trkpt lat="44.4203" lon="1.29239">
        <ele>272</ele>
        <time>2023-04-25T09:57:57Z</time>
      </trkpt>
      <trkpt lat="44.42018" lon="1.29256">
        <ele>273</ele>
        <time>2023-04-25T09:58:20Z</time>
      </trkpt>
      <trkpt lat="44.42011" lon="1.29262">
        <ele>273</ele>
        <time>2023-04-25T09:58:31Z</time>
      </trkpt>
      <trkpt lat="44.41994" lon="1.29268">
        <ele>275</ele>
        <time>2023-04-25T09:58:54Z</time>
      </trkpt>
      <trkpt lat="44.4197" lon="1.29256">
        <ele>276</ele>
        <time>2023-04-25T09:59:28Z</time>
      </trkpt>
      <trkpt lat="44.41956" lon="1.2924">
        <ele>276</ele>
        <time>2023-04-25T09:59:52Z</time>
      </trkpt>
      <trkpt lat="44.41933" lon="1.29239">
        <ele>278</ele>
        <time>2023-04-25T10:00:23Z</time>
      </trkpt>
      <trkpt lat="44.41917" lon="1.29244">
        <ele>279</ele>
        <time>2023-04-25T10:00:45Z</time>
      </trkpt>
      <trkpt lat="44.41907" lon="1.29242">
        <ele>279</ele>
        <time>2023-04-25T10:00:58Z</time>
      </trkpt>
      <trkpt lat="44.4188" lon="1.29247">
        <ele>280</ele>
        <time>2023-04-25T10:01:35Z</time>
      </trkpt>
      <trkpt lat="44.41855" lon="1.29248">
        <ele>280</ele>
        <time>2023-04-25T10:02:08Z</time>
      </trkpt>
      <trkpt lat="44.41832" lon="1.29255">
        <ele>281</ele>
        <time>2023-04-25T10:02:39Z</time>
      </trkpt>
      <trkpt lat="44.41822" lon="1.29253">
        <ele>281</ele>
        <time>2023-04-25T10:02:53Z</time>
      </trkpt>
      <trkpt lat="44.41805" lon="1.29261">
        <ele>281</ele>
        <time>2023-04-25T10:03:17Z</time>
      </trkpt>
      <trkpt lat="44.41785" lon="1.29263">
        <ele>281</ele>
        <time>2023-04-25T10:03:44Z</time>
      </trkpt>
      <trkpt lat="44.41774" lon="1.29268">
        <ele>281</ele>
        <time>2023-04-25T10:03:59Z</time>
      </trkpt>
      <trkpt lat="44.41766" lon="1.29267">
        <ele>281</ele>
        <time>2023-04-25T10:04:10Z</time>
      </trkpt>
      <trkpt lat="44.41756" lon="1.29272">
        <ele>281</ele>
        <time>2023-04-25T10:04:24Z</time>
      </trkpt>
      <trkpt lat="44.41751" lon="1.2928">
        <ele>281</ele>
        <time>2023-04-25T10:04:34Z</time>
      </trkpt>
      <trkpt lat="44.41741" lon="1.29287">
        <ele>281</ele>
        <time>2023-04-25T10:04:49Z</time>
      </trkpt>
      <trkpt lat="44.41719" lon="1.29285">
        <ele>281</ele>
        <time>2023-04-25T10:05:18Z</time>
      </trkpt>
      <trkpt lat="44.41708" lon="1.29288">
        <ele>281</ele>
        <time>2023-04-25T10:05:33Z</time>
      </trkpt>
      <trkpt lat="44.41688" lon="1.29284">
        <ele>281</ele>
        <time>2023-04-25T10:06:00Z</time>
      </trkpt>
      <trkpt lat="44.41666" lon="1.29285">
        <ele>282</ele>
        <time>2023-04-25T10:06:30Z</time>
      </trkpt>
      <trkpt lat="44.41661" lon="1.29282">
        <ele>282</ele>
        <time>2023-04-25T10:06:37Z</time>
      </trkpt>
      <trkpt lat="44.41644" lon="1.29279">
        <ele>281</ele>
        <time>2023-04-25T10:07:00Z</time>
      </trkpt>
      <trkpt lat="44.41634" lon="1.29281">
        <ele>281</ele>
        <time>2023-04-25T10:07:13Z</time>
      </trkpt>
      <trkpt lat="44.41623" lon="1.29278">
        <ele>281</ele>
        <time>2023-04-25T10:07:28Z</time>
      </trkpt>
      <trkpt lat="44.416" lon="1.29285">
        <ele>281</ele>
        <time>2023-04-25T10:08:00Z</time>
      </trkpt>
      <trkpt lat="44.41592" lon="1.29293">
        <ele>281</ele>
        <time>2023-04-25T10:08:13Z</time>
      </trkpt>
      <trkpt lat="44.41579" lon="1.29299">
        <ele>281</ele>
        <time>2023-04-25T10:08:31Z</time>
      </trkpt>
      <trkpt lat="44.41574" lon="1.29305">
        <ele>281</ele>
        <time>2023-04-25T10:08:40Z</time>
      </trkpt>
      <trkpt lat="44.41558" lon="1.29306">
        <ele>281</ele>
        <time>2023-04-25T10:09:01Z</time>
      </trkpt>
      <trkpt lat="44.41548" lon="1.29315">
        <ele>281</ele>
        <time>2023-04-25T10:09:17Z</time>
      </trkpt>
      <trkpt lat="44.41525" lon="1.29322">
        <ele>281</ele>
        <time>2023-04-25T10:09:48Z</time>
      </trkpt>
      <trkpt lat="44.41508" lon="1.29335">
        <ele>282</ele>
        <time>2023-04-25T10:10:14Z</time>
      </trkpt>
      <trkpt lat="44.41471" lon="1.29348">
        <ele>281</ele>
        <time>2023-04-25T10:11:05Z</time>
      </trkpt>
      <trkpt lat="44.41454" lon="1.29357">
        <ele>280</ele>
        <time>2023-04-25T10:11:30Z</time>
      </trkpt>
      <trkpt lat="44.41429" lon="1.29356">
        <ele>280</ele>
        <time>2023-04-25T10:12:03Z</time>
      </trkpt>
      <trkpt lat="44.41423" lon="1.29359">
        <ele>280</ele>
        <time>2023-04-25T10:12:11Z</time>
      </trkpt>
      <trkpt lat="44.41398" lon="1.29362">
        <ele>279</ele>
        <time>2023-04-25T10:12:45Z</time>
      </trkpt>
      <trkpt lat="44.41374" lon="1.2937">
        <ele>278</ele>
        <time>2023-04-25T10:13:18Z</time>
      </trkpt>
      <trkpt lat="44.41353" lon="1.29369">
        <ele>278</ele>
        <time>2023-04-25T10:13:46Z</time>
      </trkpt>
      <trkpt lat="44.41305" lon="1.29383">
        <ele>276</ele>
        <time>2023-04-25T10:14:51Z</time>
      </trkpt>
      <trkpt lat="44.41296" lon="1.29381">
        <ele>276</ele>
        <time>2023-04-25T10:15:03Z</time>
      </trkpt>
      <trkpt lat="44.41285" lon="1.29385">
        <ele>276</ele>
        <time>2023-04-25T10:15:19Z</time>
      </trkpt>
      <trkpt lat="44.41267" lon="1.29396">
        <ele>276</ele>
        <time>2023-04-25T10:15:45Z</time>
      </trkpt>
      <trkpt lat="44.41243" lon="1.29451">
        <ele>273</ele>
        <time>2023-04-25T10:16:46Z</time>
      </trkpt>
      <trkpt lat="44.41239" lon="1.29456">
        <ele>273</ele>
        <time>2023-04-25T10:16:53Z</time>
      </trkpt>
      <trkpt lat="44.41236" lon="1.29472">
        <ele>272</ele>
        <time>2023-04-25T10:17:09Z</time>
      </trkpt>
      <trkpt lat="44.41223" lon="1.29508">
        <ele>271</ele>
        <time>2023-04-25T10:17:48Z</time>
      </trkpt>
      <trkpt lat="44.41191" lon="1.29555">
        <ele>270</ele>
        <time>2023-04-25T10:18:50Z</time>
      </trkpt>
      <trkpt lat="44.41176" lon="1.29568">
        <ele>271</ele>
        <time>2023-04-25T10:19:13Z</time>
      </trkpt>
      <trkpt lat="44.41153" lon="1.29608">
        <ele>269</ele>
        <time>2023-04-25T10:20:02Z</time>
      </trkpt>
      <trkpt lat="44.41148" lon="1.29631">
        <ele>268</ele>
        <time>2023-04-25T10:20:25Z</time>
      </trkpt>
      <trkpt lat="44.41145" lon="1.29673">
        <ele>267</ele>
        <time>2023-04-25T10:21:05Z</time>
      </trkpt>
      <trkpt lat="44.41149" lon="1.29687">
        <ele>267</ele>
        <time>2023-04-25T10:21:20Z</time>
      </trkpt>
      <trkpt lat="44.41159" lon="1.29701">
        <ele>267</ele>
        <time>2023-04-25T10:21:38Z</time>
      </trkpt>
      <trkpt lat="44.41166" lon="1.29725">
        <ele>267</ele>
        <time>2023-04-25T10:22:03Z</time>
      </trkpt>
      <trkpt lat="44.4117" lon="1.29729">
        <ele>266</ele>
        <time>2023-04-25T10:22:10Z</time>
      </trkpt>
      <trkpt lat="44.41176" lon="1.29747">
        <ele>265</ele>
        <time>2023-04-25T10:22:29Z</time>
      </trkpt>
      <trkpt lat="44.41176" lon="1.29754">
        <ele>265</ele>
        <time>2023-04-25T10:22:35Z</time>
      </trkpt>
      <trkpt lat="44.4118" lon="1.29758">
        <ele>264</ele>
        <time>2023-04-25T10:22:42Z</time>
      </trkpt>
      <trkpt lat="44.41187" lon="1.29777">
        <ele>263</ele>
        <time>2023-04-25T10:23:02Z</time>
      </trkpt>
      <trkpt lat="44.41189" lon="1.29792">
        <ele>262</ele>
        <time>2023-04-25T10:23:17Z</time>
      </trkpt>
      <trkpt lat="44.41198" lon="1.29803">
        <ele>260</ele>
        <time>2023-04-25T10:23:33Z</time>
      </trkpt>
      <trkpt lat="44.41206" lon="1.2982">
        <ele>258</ele>
        <time>2023-04-25T10:23:52Z</time>
      </trkpt>
      <trkpt lat="44.41212" lon="1.29841">
        <ele>257</ele>
        <time>2023-04-25T10:24:14Z</time>
      </trkpt>
      <trkpt lat="44.41225" lon="1.29857">
        <ele>254</ele>
        <time>2023-04-25T10:24:37Z</time>
      </trkpt>
      <trkpt lat="44.41224" lon="1.29869">
        <ele>254</ele>
        <time>2023-04-25T10:24:48Z</time>
      </trkpt>
      <trkpt lat="44.41228" lon="1.29875">
        <ele>253</ele>
        <time>2023-04-25T10:24:56Z</time>
      </trkpt>
      <trkpt lat="44.41231" lon="1.29891">
        <ele>252</ele>
        <time>2023-04-25T10:25:12Z</time>
      </trkpt>
      <trkpt lat="44.41238" lon="1.2991">
        <ele>250</ele>
        <time>2023-04-25T10:25:32Z</time>
      </trkpt>
      <trkpt lat="44.41246" lon="1.29912">
        <ele>249</ele>
        <time>2023-04-25T10:25:43Z</time>
      </trkpt>
      <trkpt lat="44.41256" lon="1.29909">
        <ele>248</ele>
        <time>2023-04-25T10:25:57Z</time>
      </trkpt>
      <trkpt lat="44.41273" lon="1.29889">
        <ele>249</ele>
        <time>2023-04-25T10:26:26Z</time>
      </trkpt>
      <trkpt lat="44.41277" lon="1.29887">
        <ele>249</ele>
        <time>2023-04-25T10:26:32Z</time>
      </trkpt>
      <trkpt lat="44.41282" lon="1.29889">
        <ele>249</ele>
        <time>2023-04-25T10:26:39Z</time>
      </trkpt>
      <trkpt lat="44.41288" lon="1.29901">
        <ele>248</ele>
        <time>2023-04-25T10:26:53Z</time>
      </trkpt>
      <trkpt lat="44.41291" lon="1.29935">
        <ele>245</ele>
        <time>2023-04-25T10:27:26Z</time>
      </trkpt>
      <trkpt lat="44.41301" lon="1.29947">
        <ele>244</ele>
        <time>2023-04-25T10:27:43Z</time>
      </trkpt>
      <trkpt lat="44.41306" lon="1.29947">
        <ele>244</ele>
        <time>2023-04-25T10:27:50Z</time>
      </trkpt>
      <trkpt lat="44.41308" lon="1.2995">
        <ele>243</ele>
        <time>2023-04-25T10:27:54Z</time>
      </trkpt>
      <trkpt lat="44.41318" lon="1.29991">
        <ele>239</ele>
        <time>2023-04-25T10:28:35Z</time>
      </trkpt>
      <trkpt lat="44.41326" lon="1.29997">
        <ele>238</ele>
        <time>2023-04-25T10:28:47Z</time>
      </trkpt>
      <trkpt lat="44.41323" lon="1.30001">
        <ele>238</ele>
        <time>2023-04-25T10:28:53Z</time>
      </trkpt>
      <trkpt lat="44.41326" lon="1.29999">
        <ele>238</ele>
        <time>2023-04-25T10:28:57Z</time>
      </trkpt>
      <trkpt lat="44.41337" lon="1.30003">
        <ele>237</ele>
        <time>2023-04-25T10:29:12Z</time>
      </trkpt>
      <trkpt lat="44.41342" lon="1.30011">
        <ele>237</ele>
        <time>2023-04-25T10:29:22Z</time>
      </trkpt>
      <trkpt lat="44.41346" lon="1.30012">
        <ele>237</ele>
        <time>2023-04-25T10:29:28Z</time>
      </trkpt>
      <trkpt lat="44.41385" lon="1.30065">
        <ele>230</ele>
        <time>2023-04-25T10:30:40Z</time>
      </trkpt>
      <trkpt lat="44.41429" lon="1.30078">
        <ele>224</ele>
        <time>2023-04-25T10:31:40Z</time>
      </trkpt>
      <trkpt lat="44.41438" lon="1.30086">
        <ele>223</ele>
        <time>2023-04-25T10:31:55Z</time>
      </trkpt>
      <trkpt lat="44.41449" lon="1.30085">
        <ele>222</ele>
        <time>2023-04-25T10:32:09Z</time>
      </trkpt>
      <trkpt lat="44.4146" lon="1.30098">
        <ele>221</ele>
        <time>2023-04-25T10:32:29Z</time>
      </trkpt>
      <trkpt lat="44.41486" lon="1.30116">
        <ele>220</ele>
        <time>2023-04-25T10:33:07Z</time>
      </trkpt>
      <trkpt lat="44.41498" lon="1.3013">
        <ele>219</ele>
        <time>2023-04-25T10:33:28Z</time>
      </trkpt>
      <trkpt lat="44.41505" lon="1.30133">
        <ele>220</ele>
        <time>2023-04-25T10:33:38Z</time>
      </trkpt>
      <trkpt lat="44.41504" lon="1.30158">
        <ele>220</ele>
        <time>2023-04-25T10:34:02Z</time>
      </trkpt>
      <trkpt lat="44.41497" lon="1.30195">
        <ele>223</ele>
        <time>2023-04-25T10:34:38Z</time>
      </trkpt>
      <trkpt lat="44.41486" lon="1.30217">
        <ele>225</ele>
        <time>2023-04-25T10:35:04Z</time>
      </trkpt>
      <trkpt lat="44.41479" lon="1.30224">
        <ele>225</ele>
        <time>2023-04-25T10:35:15Z</time>
      </trkpt>
      <trkpt lat="44.41478" lon="1.30232">
        <ele>225</ele>
        <time>2023-04-25T10:35:23Z</time>
      </trkpt>
      <trkpt lat="44.41464" lon="1.30262">
        <ele>225</ele>
        <time>2023-04-25T10:35:57Z</time>
      </trkpt>
      <trkpt lat="44.41461" lon="1.30289">
        <ele>226</ele>
        <time>2023-04-25T10:36:23Z</time>
      </trkpt>
      <trkpt lat="44.41464" lon="1.30308">
        <ele>227</ele>
        <time>2023-04-25T10:36:42Z</time>
      </trkpt>
      <trkpt lat="44.41461" lon="1.30333">
        <ele>227</ele>
        <time>2023-04-25T10:37:06Z</time>
      </trkpt>
      <trkpt lat="44.41454" lon="1.30352">
        <ele>228</ele>
        <time>2023-04-25T10:37:26Z</time>
      </trkpt>
      <trkpt lat="44.41443" lon="1.30371">
        <ele>227</ele>
        <time>2023-04-25T10:37:50Z</time>
      </trkpt>
      <trkpt lat="44.41394" lon="1.30424">
        <ele>226</ele>
        <time>2023-04-25T10:39:12Z</time>
      </trkpt>
      <trkpt lat="44.41381" lon="1.30425">
        <ele>226</ele>
        <time>2023-04-25T10:39:30Z</time>
      </trkpt>
      <trkpt lat="44.41368" lon="1.30431">
        <ele>226</ele>
        <time>2023-04-25T10:39:48Z</time>
      </trkpt>
      <trkpt lat="44.41346" lon="1.30431">
        <ele>226</ele>
        <time>2023-04-25T10:40:17Z</time>
      </trkpt>
      <trkpt lat="44.41328" lon="1.30441">
        <ele>227</ele>
        <time>2023-04-25T10:40:43Z</time>
      </trkpt>
      <trkpt lat="44.41316" lon="1.30452">
        <ele>228</ele>
        <time>2023-04-25T10:41:02Z</time>
      </trkpt>
      <trkpt lat="44.41301" lon="1.3045">
        <ele>227</ele>
        <time>2023-04-25T10:41:22Z</time>
      </trkpt>
      <trkpt lat="44.41286" lon="1.30437">
        <ele>225</ele>
        <time>2023-04-25T10:41:46Z</time>
      </trkpt>
      <trkpt lat="44.41285" lon="1.30429">
        <ele>225</ele>
        <time>2023-04-25T10:41:54Z</time>
      </trkpt>
      <trkpt lat="44.41283" lon="1.30428">
        <ele>225</ele>
        <time>2023-04-25T10:41:56Z</time>
      </trkpt>
      <trkpt lat="44.41271" lon="1.30428">
        <ele>224</ele>
        <time>2023-04-25T10:42:12Z</time>
      </trkpt>
      <trkpt lat="44.41265" lon="1.30435">
        <ele>225</ele>
        <time>2023-04-25T10:42:23Z</time>
      </trkpt>
      <trkpt lat="44.41264" lon="1.30432">
        <ele>225</ele>
        <time>2023-04-25T10:42:26Z</time>
      </trkpt>
      <trkpt lat="44.41263" lon="1.30435">
        <ele>225</ele>
        <time>2023-04-25T10:42:29Z</time>
      </trkpt>
      <trkpt lat="44.41266" lon="1.3044">
        <ele>225</ele>
        <time>2023-04-25T10:42:35Z</time>
      </trkpt>
      <trkpt lat="44.41267" lon="1.30438">
        <ele>225</ele>
        <time>2023-04-25T10:42:38Z</time>
      </trkpt>
      <trkpt lat="44.41266" lon="1.30446">
        <ele>226</ele>
        <time>2023-04-25T10:42:46Z</time>
      </trkpt>
      <trkpt lat="44.41262" lon="1.30452">
        <ele>226</ele>
        <time>2023-04-25T10:42:53Z</time>
      </trkpt>
      <trkpt lat="44.41256" lon="1.30472">
        <ele>228</ele>
        <time>2023-04-25T10:43:14Z</time>
      </trkpt>
      <trkpt lat="44.41254" lon="1.30493">
        <ele>230</ele>
        <time>2023-04-25T10:43:34Z</time>
      </trkpt>
      <trkpt lat="44.4125" lon="1.30503">
        <ele>230</ele>
        <time>2023-04-25T10:43:45Z</time>
      </trkpt>
      <trkpt lat="44.41228" lon="1.30516">
        <ele>231</ele>
        <time>2023-04-25T10:44:17Z</time>
      </trkpt>
      <trkpt lat="44.41222" lon="1.30526">
        <ele>232</ele>
        <time>2023-04-25T10:44:29Z</time>
      </trkpt>
      <trkpt lat="44.41216" lon="1.30529">
        <ele>233</ele>
        <time>2023-04-25T10:44:38Z</time>
      </trkpt>
      <trkpt lat="44.41196" lon="1.30565">
        <ele>237</ele>
        <time>2023-04-25T10:45:21Z</time>
      </trkpt>
      <trkpt lat="44.41197" lon="1.30567">
        <ele>237</ele>
        <time>2023-04-25T10:45:24Z</time>
      </trkpt>
      <trkpt lat="44.41188" lon="1.30572">
        <ele>238</ele>
        <time>2023-04-25T10:45:37Z</time>
      </trkpt>
      <trkpt lat="44.41178" lon="1.30583">
        <ele>239</ele>
        <time>2023-04-25T10:45:54Z</time>
      </trkpt>
      <trkpt lat="44.41163" lon="1.30589">
        <ele>240</ele>
        <time>2023-04-25T10:46:14Z</time>
      </trkpt>
      <trkpt lat="44.41157" lon="1.30597">
        <ele>240</ele>
        <time>2023-04-25T10:46:26Z</time>
      </trkpt>
      <trkpt lat="44.41155" lon="1.30609">
        <ele>240</ele>
        <time>2023-04-25T10:46:37Z</time>
      </trkpt>
      <trkpt lat="44.41159" lon="1.30692">
        <ele>243</ele>
        <time>2023-04-25T10:47:57Z</time>
      </trkpt>
      <trkpt lat="44.41155" lon="1.30689">
        <ele>242</ele>
        <time>2023-04-25T10:48:03Z</time>
      </trkpt>
      <trkpt lat="44.41161" lon="1.30708">
        <ele>244</ele>
        <time>2023-04-25T10:48:22Z</time>
      </trkpt>
      <trkpt lat="44.41159" lon="1.30737">
        <ele>245</ele>
        <time>2023-04-25T10:48:50Z</time>
      </trkpt>
      <trkpt lat="44.41153" lon="1.30753">
        <ele>244</ele>
        <time>2023-04-25T10:49:07Z</time>
      </trkpt>
      <trkpt lat="44.41139" lon="1.30774">
        <ele>244</ele>
        <time>2023-04-25T10:49:35Z</time>
      </trkpt>
      <trkpt lat="44.41129" lon="1.30821">
        <ele>245</ele>
        <time>2023-04-25T10:50:22Z</time>
      </trkpt>
      <trkpt lat="44.4112" lon="1.30833">
        <ele>245</ele>
        <time>2023-04-25T10:50:38Z</time>
      </trkpt>
      <trkpt lat="44.41119" lon="1.30831">
        <ele>245</ele>
        <time>2023-04-25T10:50:40Z</time>
      </trkpt>
      <trkpt lat="44.41104" lon="1.30837">
        <ele>244</ele>
        <time>2023-04-25T10:51:01Z</time>
      </trkpt>
      <trkpt lat="44.41091" lon="1.30847">
        <ele>244</ele>
        <time>2023-04-25T10:51:21Z</time>
      </trkpt>
      <trkpt lat="44.41088" lon="1.30854">
        <ele>244</ele>
        <time>2023-04-25T10:51:29Z</time>
      </trkpt>
      <trkpt lat="44.41088" lon="1.30868">
        <ele>246</ele>
        <time>2023-04-25T10:51:42Z</time>
      </trkpt>
      <trkpt lat="44.41075" lon="1.30885">
        <ele>247</ele>
        <time>2023-04-25T10:52:06Z</time>
      </trkpt>
      <trkpt lat="44.41069" lon="1.30905">
        <ele>248</ele>
        <time>2023-04-25T10:52:27Z</time>
      </trkpt>
      <trkpt lat="44.41053" lon="1.3092">
        <ele>248</ele>
        <time>2023-04-25T10:52:52Z</time>
      </trkpt>
      <trkpt lat="44.41043" lon="1.30926">
        <ele>247</ele>
        <time>2023-04-25T10:53:07Z</time>
      </trkpt>
      <trkpt lat="44.41038" lon="1.3094">
        <ele>247</ele>
        <time>2023-04-25T10:53:22Z</time>
      </trkpt>
      <trkpt lat="44.41033" lon="1.30945">
        <ele>247</ele>
        <time>2023-04-25T10:53:30Z</time>
      </trkpt>
      <trkpt lat="44.41017" lon="1.30953">
        <ele>246</ele>
        <time>2023-04-25T10:53:53Z</time>
      </trkpt>
      <trkpt lat="44.41003" lon="1.30952">
        <ele>244</ele>
        <time>2023-04-25T10:54:11Z</time>
      </trkpt>
      <trkpt lat="44.40977" lon="1.30957">
        <ele>244</ele>
        <time>2023-04-25T10:54:46Z</time>
      </trkpt>
      <trkpt lat="44.40964" lon="1.30957">
        <ele>243</ele>
        <time>2023-04-25T10:55:04Z</time>
      </trkpt>
      <trkpt lat="44.40954" lon="1.30963">
        <ele>243</ele>
        <time>2023-04-25T10:55:18Z</time>
      </trkpt>
      <trkpt lat="44.40939" lon="1.30966">
        <ele>243</ele>
        <time>2023-04-25T10:55:38Z</time>
      </trkpt>
      <trkpt lat="44.40938" lon="1.30984">
        <ele>244</ele>
        <time>2023-04-25T10:55:56Z</time>
      </trkpt>
      <trkpt lat="44.40933" lon="1.30996">
        <ele>243</ele>
        <time>2023-04-25T10:56:09Z</time>
      </trkpt>
      <trkpt lat="44.4093" lon="1.31017">
        <ele>244</ele>
        <time>2023-04-25T10:56:29Z</time>
      </trkpt>
      <trkpt lat="44.4093" lon="1.31045">
        <ele>245</ele>
        <time>2023-04-25T10:56:56Z</time>
      </trkpt>
      <trkpt lat="44.40925" lon="1.31085">
        <ele>247</ele>
        <time>2023-04-25T10:57:35Z</time>
      </trkpt>
      <trkpt lat="44.40924" lon="1.3115">
        <ele>248</ele>
        <time>2023-04-25T10:58:37Z</time>
      </trkpt>
      <trkpt lat="44.40921" lon="1.31159">
        <ele>247</ele>
        <time>2023-04-25T10:58:46Z</time>
      </trkpt>
      <trkpt lat="44.4092" lon="1.31183">
        <ele>248</ele>
        <time>2023-04-25T10:59:09Z</time>
      </trkpt>
      <trkpt lat="44.40907" lon="1.31251">
        <ele>250</ele>
        <time>2023-04-25T11:00:16Z</time>
      </trkpt>
      <trkpt lat="44.4092" lon="1.31311">
        <ele>251</ele>
        <time>2023-04-25T11:01:16Z</time>
      </trkpt>
      <trkpt lat="44.40918" lon="1.31317">
        <ele>251</ele>
        <time>2023-04-25T11:01:22Z</time>
      </trkpt>
      <trkpt lat="44.40922" lon="1.31329">
        <ele>252</ele>
        <time>2023-04-25T11:01:35Z</time>
      </trkpt>
      <trkpt lat="44.40921" lon="1.3134">
        <ele>252</ele>
        <time>2023-04-25T11:01:45Z</time>
      </trkpt>
      <trkpt lat="44.40924" lon="1.31348">
        <ele>253</ele>
        <time>2023-04-25T11:01:54Z</time>
      </trkpt>
      <trkpt lat="44.40922" lon="1.3136">
        <ele>253</ele>
        <time>2023-04-25T11:02:06Z</time>
      </trkpt>
      <trkpt lat="44.40924" lon="1.31387">
        <ele>254</ele>
        <time>2023-04-25T11:02:32Z</time>
      </trkpt>
      <trkpt lat="44.40901" lon="1.31452">
        <ele>257</ele>
        <time>2023-04-25T11:03:41Z</time>
      </trkpt>
      <trkpt lat="44.40892" lon="1.31487">
        <ele>258</ele>
        <time>2023-04-25T11:04:16Z</time>
      </trkpt>
      <trkpt lat="44.40878" lon="1.31522">
        <ele>260</ele>
        <time>2023-04-25T11:04:55Z</time>
      </trkpt>
      <trkpt lat="44.40874" lon="1.3155">
        <ele>261</ele>
        <time>2023-04-25T11:05:22Z</time>
      </trkpt>
      <trkpt lat="44.40867" lon="1.3157">
        <ele>262</ele>
        <time>2023-04-25T11:05:43Z</time>
      </trkpt>
      <trkpt lat="44.4086" lon="1.31603">
        <ele>261</ele>
        <time>2023-04-25T11:06:16Z</time>
      </trkpt>
      <trkpt lat="44.40858" lon="1.31639">
        <ele>260</ele>
        <time>2023-04-25T11:06:50Z</time>
      </trkpt>
      <trkpt lat="44.40843" lon="1.3166">
        <ele>258</ele>
        <time>2023-04-25T11:07:19Z</time>
      </trkpt>
      <trkpt lat="44.40829" lon="1.31665">
        <ele>257</ele>
        <time>2023-04-25T11:07:38Z</time>
      </trkpt>
      <trkpt lat="44.40806" lon="1.31685">
        <ele>261</ele>
        <time>2023-04-25T11:08:14Z</time>
      </trkpt>
      <trkpt lat="44.40794" lon="1.31701">
        <ele>263</ele>
        <time>2023-04-25T11:08:36Z</time>
      </trkpt>
      <trkpt lat="44.40789" lon="1.31713">
        <ele>263</ele>
        <time>2023-04-25T11:08:49Z</time>
      </trkpt>
      <trkpt lat="44.40775" lon="1.31725">
        <ele>263</ele>
        <time>2023-04-25T11:09:11Z</time>
      </trkpt>
      <trkpt lat="44.40769" lon="1.31736">
        <ele>263</ele>
        <time>2023-04-25T11:09:24Z</time>
      </trkpt>
      <trkpt lat="44.40766" lon="1.31748">
        <ele>263</ele>
        <time>2023-04-25T11:09:37Z</time>
      </trkpt>
      <trkpt lat="44.40753" lon="1.3177">
        <ele>263</ele>
        <time>2023-04-25T11:10:04Z</time>
      </trkpt>
      <trkpt lat="44.40749" lon="1.318">
        <ele>263</ele>
        <time>2023-04-25T11:10:33Z</time>
      </trkpt>
      <trkpt lat="44.40737" lon="1.31819">
        <ele>264</ele>
        <time>2023-04-25T11:10:57Z</time>
      </trkpt>
      <trkpt lat="44.40725" lon="1.31876">
        <ele>267</ele>
        <time>2023-04-25T11:11:54Z</time>
      </trkpt>
      <trkpt lat="44.40722" lon="1.31902">
        <ele>269</ele>
        <time>2023-04-25T11:12:19Z</time>
      </trkpt>
      <trkpt lat="44.40724" lon="1.31907">
        <ele>269</ele>
        <time>2023-04-25T11:12:24Z</time>
      </trkpt>
      <trkpt lat="44.40722" lon="1.3193">
        <ele>270</ele>
        <time>2023-04-25T11:12:46Z</time>
      </trkpt>
      <trkpt lat="44.40724" lon="1.31949">
        <ele>271</ele>
        <time>2023-04-25T11:13:05Z</time>
      </trkpt>
      <trkpt lat="44.40743" lon="1.31988">
        <ele>271</ele>
        <time>2023-04-25T11:13:50Z</time>
      </trkpt>
      <trkpt lat="44.40741" lon="1.3199">
        <ele>271</ele>
        <time>2023-04-25T11:13:53Z</time>
      </trkpt>
      <trkpt lat="44.4074" lon="1.31985">
        <ele>271</ele>
        <time>2023-04-25T11:13:58Z</time>
      </trkpt>
      <trkpt lat="44.40742" lon="1.31987">
        <ele>271</ele>
        <time>2023-04-25T11:14:01Z</time>
      </trkpt>
      <trkpt lat="44.40741" lon="1.3199">
        <ele>271</ele>
        <time>2023-04-25T11:14:04Z</time>
      </trkpt>
      <trkpt lat="44.40724" lon="1.31987">
        <ele>272</ele>
        <time>2023-04-25T11:14:27Z</time>
      </trkpt>
      <trkpt lat="44.40716" lon="1.31993">
        <ele>272</ele>
        <time>2023-04-25T11:14:39Z</time>
      </trkpt>
      <trkpt lat="44.40709" lon="1.31992">
        <ele>272</ele>
        <time>2023-04-25T11:14:49Z</time>
      </trkpt>
      <trkpt lat="44.4071" lon="1.31994">
        <ele>272</ele>
        <time>2023-04-25T11:14:51Z</time>
      </trkpt>
      <trkpt lat="44.40678" lon="1.3203">
        <ele>274</ele>
        <time>2023-04-25T11:15:46Z</time>
      </trkpt>
      <trkpt lat="44.4067" lon="1.32064">
        <ele>275</ele>
        <time>2023-04-25T11:16:20Z</time>
      </trkpt>
      <trkpt lat="44.40671" lon="1.32092">
        <ele>277</ele>
        <time>2023-04-25T11:16:47Z</time>
      </trkpt>
      <trkpt lat="44.40653" lon="1.32093">
        <ele>278</ele>
        <time>2023-04-25T11:17:11Z</time>
      </trkpt>
      <trkpt lat="44.40649" lon="1.32091">
        <ele>278</ele>
        <time>2023-04-25T11:17:16Z</time>
      </trkpt>
      <trkpt lat="44.40644" lon="1.32093">
        <ele>278</ele>
        <time>2023-04-25T11:17:23Z</time>
      </trkpt>
      <trkpt lat="44.40639" lon="1.32091">
        <ele>278</ele>
        <time>2023-04-25T11:17:30Z</time>
      </trkpt>
      <trkpt lat="44.40629" lon="1.32095">
        <ele>279</ele>
        <time>2023-04-25T11:17:44Z</time>
      </trkpt>
      <trkpt lat="44.40621" lon="1.3207">
        <ele>278</ele>
        <time>2023-04-25T11:18:10Z</time>
      </trkpt>
      <trkpt lat="44.4061" lon="1.32056">
        <ele>279</ele>
        <time>2023-04-25T11:18:30Z</time>
      </trkpt>
      <trkpt lat="44.40601" lon="1.32075">
        <ele>280</ele>
        <time>2023-04-25T11:18:52Z</time>
      </trkpt>
      <trkpt lat="44.40595" lon="1.32096">
        <ele>281</ele>
        <time>2023-04-25T11:19:13Z</time>
      </trkpt>
      <trkpt lat="44.40588" lon="1.321">
        <ele>281</ele>
        <time>2023-04-25T11:19:23Z</time>
      </trkpt>
      <trkpt lat="44.40585" lon="1.32105">
        <ele>282</ele>
        <time>2023-04-25T11:19:30Z</time>
      </trkpt>
      <trkpt lat="44.40569" lon="1.32108">
        <ele>282</ele>
        <time>2023-04-25T11:19:51Z</time>
      </trkpt>
      <trkpt lat="44.40568" lon="1.32096">
        <ele>282</ele>
        <time>2023-04-25T11:20:03Z</time>
      </trkpt>
      <trkpt lat="44.40564" lon="1.32086">
        <ele>282</ele>
        <time>2023-04-25T11:20:14Z</time>
      </trkpt>
      <trkpt lat="44.40554" lon="1.32092">
        <ele>282</ele>
        <time>2023-04-25T11:20:28Z</time>
      </trkpt>
      <trkpt lat="44.40548" lon="1.32082">
        <ele>282</ele>
        <time>2023-04-25T11:20:41Z</time>
      </trkpt>
      <trkpt lat="44.40543" lon="1.32084">
        <ele>282</ele>
        <time>2023-04-25T11:20:48Z</time>
      </trkpt>
      <trkpt lat="44.40545" lon="1.32081">
        <ele>282</ele>
        <time>2023-04-25T11:20:52Z</time>
      </trkpt>
      <trkpt lat="44.40538" lon="1.32077">
        <ele>282</ele>
        <time>2023-04-25T11:21:02Z</time>
      </trkpt>
      <trkpt lat="44.40525" lon="1.32063">
        <ele>282</ele>
        <time>2023-04-25T11:21:23Z</time>
      </trkpt>
      <trkpt lat="44.40515" lon="1.32057">
        <ele>282</ele>
        <time>2023-04-25T11:21:38Z</time>
      </trkpt>
      <trkpt lat="44.40505" lon="1.32044">
        <ele>282</ele>
        <time>2023-04-25T11:21:56Z</time>
      </trkpt>
      <trkpt lat="44.40505" lon="1.32041">
        <ele>281</ele>
        <time>2023-04-25T11:21:59Z</time>
      </trkpt>
      <trkpt lat="44.40487" lon="1.32026">
        <ele>280</ele>
        <time>2023-04-25T11:22:27Z</time>
      </trkpt>
      <trkpt lat="44.40472" lon="1.32001">
        <ele>277</ele>
        <time>2023-04-25T11:22:58Z</time>
      </trkpt>
      <trkpt lat="44.40459" lon="1.31995">
        <ele>276</ele>
        <time>2023-04-25T11:23:16Z</time>
      </trkpt>
      <trkpt lat="44.40445" lon="1.31972">
        <ele>275</ele>
        <time>2023-04-25T11:23:45Z</time>
      </trkpt>
      <trkpt lat="44.40439" lon="1.31968">
        <ele>275</ele>
        <time>2023-04-25T11:23:54Z</time>
      </trkpt>
      <trkpt lat="44.40424" lon="1.31964">
        <ele>274</ele>
        <time>2023-04-25T11:24:14Z</time>
      </trkpt>
      <trkpt lat="44.40407" lon="1.31942">
        <ele>274</ele>
        <time>2023-04-25T11:24:45Z</time>
      </trkpt>
      <trkpt lat="44.40402" lon="1.31942">
        <ele>274</ele>
        <time>2023-04-25T11:24:52Z</time>
      </trkpt>
      <trkpt lat="44.40394" lon="1.31947">
        <ele>274</ele>
        <time>2023-04-25T11:25:04Z</time>
      </trkpt>
      <trkpt lat="44.40385" lon="1.31961">
        <ele>274</ele>
        <time>2023-04-25T11:25:22Z</time>
      </trkpt>
      <trkpt lat="44.40376" lon="1.31966">
        <ele>274</ele>
        <time>2023-04-25T11:25:35Z</time>
      </trkpt>
      <trkpt lat="44.40366" lon="1.31977">
        <ele>274</ele>
        <time>2023-04-25T11:25:52Z</time>
      </trkpt>
      <trkpt lat="44.40353" lon="1.31977">
        <ele>274</ele>
        <time>2023-04-25T11:26:09Z</time>
      </trkpt>
      <trkpt lat="44.40333" lon="1.31958">
        <ele>274</ele>
        <time>2023-04-25T11:26:41Z</time>
      </trkpt>
      <trkpt lat="44.4033" lon="1.31951">
        <ele>274</ele>
        <time>2023-04-25T11:26:49Z</time>
      </trkpt>
      <trkpt lat="44.4032" lon="1.31943">
        <ele>275</ele>
        <time>2023-04-25T11:27:04Z</time>
      </trkpt>
      <trkpt lat="44.4032" lon="1.3194">
        <ele>275</ele>
        <time>2023-04-25T11:27:07Z</time>
      </trkpt>
      <trkpt lat="44.40271" lon="1.31894">
        <ele>277</ele>
        <time>2023-04-25T11:28:26Z</time>
      </trkpt>
      <trkpt lat="44.40269" lon="1.31886">
        <ele>277</ele>
        <time>2023-04-25T11:28:34Z</time>
      </trkpt>
      <trkpt lat="44.40272" lon="1.31874">
        <ele>276</ele>
        <time>2023-04-25T11:28:46Z</time>
      </trkpt>
      <trkpt lat="44.40287" lon="1.31844">
        <ele>276</ele>
        <time>2023-04-25T11:29:21Z</time>
      </trkpt>
      <trkpt lat="44.40293" lon="1.3182">
        <ele>275</ele>
        <time>2023-04-25T11:29:45Z</time>
      </trkpt>
      <trkpt lat="44.40294" lon="1.31799">
        <ele>275</ele>
        <time>2023-04-25T11:30:05Z</time>
      </trkpt>
      <trkpt lat="44.40302" lon="1.3177">
        <ele>276</ele>
        <time>2023-04-25T11:30:35Z</time>
      </trkpt>
      <trkpt lat="44.40313" lon="1.31753">
        <ele>276</ele>
        <time>2023-04-25T11:30:57Z</time>
      </trkpt>
      <trkpt lat="44.40324" lon="1.31699">
        <ele>276</ele>
        <time>2023-04-25T11:31:50Z</time>
      </trkpt>
      <trkpt lat="44.40324" lon="1.31688">
        <ele>276</ele>
        <time>2023-04-25T11:32:01Z</time>
      </trkpt>
      <trkpt lat="44.40329" lon="1.31674">
        <ele>276</ele>
        <time>2023-04-25T11:32:16Z</time>
      </trkpt>
      <trkpt lat="44.40328" lon="1.31636">
        <ele>274</ele>
        <time>2023-04-25T11:32:52Z</time>
      </trkpt>
      <trkpt lat="44.40334" lon="1.31598">
        <ele>273</ele>
        <time>2023-04-25T11:33:29Z</time>
      </trkpt>
      <trkpt lat="44.40331" lon="1.3158">
        <ele>272</ele>
        <time>2023-04-25T11:33:47Z</time>
      </trkpt>
      <trkpt lat="44.40332" lon="1.31557">
        <ele>270</ele>
        <time>2023-04-25T11:34:09Z</time>
      </trkpt>
      <trkpt lat="44.40336" lon="1.31537">
        <ele>269</ele>
        <time>2023-04-25T11:34:29Z</time>
      </trkpt>
      <trkpt lat="44.40334" lon="1.3152">
        <ele>268</ele>
        <time>2023-04-25T11:34:45Z</time>
      </trkpt>
      <trkpt lat="44.40331" lon="1.31514">
        <ele>268</ele>
        <time>2023-04-25T11:34:52Z</time>
      </trkpt>
      <trkpt lat="44.40331" lon="1.31479">
        <ele>266</ele>
        <time>2023-04-25T11:35:25Z</time>
      </trkpt>
      <trkpt lat="44.40327" lon="1.31468">
        <ele>266</ele>
        <time>2023-04-25T11:35:37Z</time>
      </trkpt>
      <trkpt lat="44.40327" lon="1.31455">
        <ele>265</ele>
        <time>2023-04-25T11:35:49Z</time>
      </trkpt>
      <trkpt lat="44.40325" lon="1.31452">
        <ele>265</ele>
        <time>2023-04-25T11:35:53Z</time>
      </trkpt>
      <trkpt lat="44.40329" lon="1.31434">
        <ele>264</ele>
        <time>2023-04-25T11:36:11Z</time>
      </trkpt>
      <trkpt lat="44.40324" lon="1.31411">
        <ele>263</ele>
        <time>2023-04-25T11:36:34Z</time>
      </trkpt>
      <trkpt lat="44.40328" lon="1.31374">
        <ele>261</ele>
        <time>2023-04-25T11:37:10Z</time>
      </trkpt>
      <trkpt lat="44.40332" lon="1.31363">
        <ele>261</ele>
        <time>2023-04-25T11:37:22Z</time>
      </trkpt>
      <trkpt lat="44.40332" lon="1.3134">
        <ele>259</ele>
        <time>2023-04-25T11:37:44Z</time>
      </trkpt>
      <trkpt lat="44.40337" lon="1.31325">
        <ele>259</ele>
        <time>2023-04-25T11:37:59Z</time>
      </trkpt>
      <trkpt lat="44.4035" lon="1.31311">
        <ele>259</ele>
        <time>2023-04-25T11:38:21Z</time>
      </trkpt>
      <trkpt lat="44.40346" lon="1.31289">
        <ele>257</ele>
        <time>2023-04-25T11:38:43Z</time>
      </trkpt>
      <trkpt lat="44.40338" lon="1.31282">
        <ele>257</ele>
        <time>2023-04-25T11:38:56Z</time>
      </trkpt>
      <trkpt lat="44.4033" lon="1.31264">
        <ele>256</ele>
        <time>2023-04-25T11:39:16Z</time>
      </trkpt>
      <trkpt lat="44.40311" lon="1.31239">
        <ele>256</ele>
        <time>2023-04-25T11:39:51Z</time>
      </trkpt>
      <trkpt lat="44.40308" lon="1.31201">
        <ele>254</ele>
        <time>2023-04-25T11:40:27Z</time>
      </trkpt>
      <trkpt lat="44.40317" lon="1.31167">
        <ele>251</ele>
        <time>2023-04-25T11:41:02Z</time>
      </trkpt>
      <trkpt lat="44.40318" lon="1.31155">
        <ele>252</ele>
        <time>2023-04-25T11:41:13Z</time>
      </trkpt>
      <trkpt lat="44.40337" lon="1.31133">
        <ele>251</ele>
        <time>2023-04-25T11:41:46Z</time>
      </trkpt>
      <trkpt lat="44.40337" lon="1.31116">
        <ele>251</ele>
        <time>2023-04-25T11:42:02Z</time>
      </trkpt>
      <trkpt lat="44.40333" lon="1.31098">
        <ele>252</ele>
        <time>2023-04-25T11:42:20Z</time>
      </trkpt>
      <trkpt lat="44.40334" lon="1.31083">
        <ele>252</ele>
        <time>2023-04-25T11:42:35Z</time>
      </trkpt>
      <trkpt lat="44.40328" lon="1.31064">
        <ele>253</ele>
        <time>2023-04-25T11:42:54Z</time>
      </trkpt>
      <trkpt lat="44.40316" lon="1.31039">
        <ele>255</ele>
        <time>2023-04-25T11:43:23Z</time>
      </trkpt>
      <trkpt lat="44.40304" lon="1.31001">
        <ele>257</ele>
        <time>2023-04-25T11:44:03Z</time>
      </trkpt>
      <trkpt lat="44.40294" lon="1.30988">
        <ele>258</ele>
        <time>2023-04-25T11:44:21Z</time>
      </trkpt>
      <trkpt lat="44.40285" lon="1.30965">
        <ele>259</ele>
        <time>2023-04-25T11:44:46Z</time>
      </trkpt>
      <trkpt lat="44.40289" lon="1.30965">
        <ele>259</ele>
        <time>2023-04-25T11:44:51Z</time>
      </trkpt>
      <trkpt lat="44.40294" lon="1.30959">
        <ele>259</ele>
        <time>2023-04-25T11:45:00Z</time>
      </trkpt>
      <trkpt lat="44.40304" lon="1.30936">
        <ele>259</ele>
        <time>2023-04-25T11:45:26Z</time>
      </trkpt>
      <trkpt lat="44.40318" lon="1.30924">
        <ele>260</ele>
        <time>2023-04-25T11:45:48Z</time>
      </trkpt>
      <trkpt lat="44.40326" lon="1.30912">
        <ele>261</ele>
        <time>2023-04-25T11:46:03Z</time>
      </trkpt>
      <trkpt lat="44.4034" lon="1.30904">
        <ele>262</ele>
        <time>2023-04-25T11:46:23Z</time>
      </trkpt>
      <trkpt lat="44.40358" lon="1.30882">
        <ele>265</ele>
        <time>2023-04-25T11:46:55Z</time>
      </trkpt>
      <trkpt lat="44.4037" lon="1.30845">
        <ele>268</ele>
        <time>2023-04-25T11:47:34Z</time>
      </trkpt>
      <trkpt lat="44.40367" lon="1.30844">
        <ele>268</ele>
        <time>2023-04-25T11:47:38Z</time>
      </trkpt>
      <trkpt lat="44.40365" lon="1.30833">
        <ele>268</ele>
        <time>2023-04-25T11:47:49Z</time>
      </trkpt>
      <trkpt lat="44.40369" lon="1.30808">
        <ele>270</ele>
        <time>2023-04-25T11:48:13Z</time>
      </trkpt>
      <trkpt lat="44.40368" lon="1.30797">
        <ele>270</ele>
        <time>2023-04-25T11:48:24Z</time>
      </trkpt>
      <trkpt lat="44.40363" lon="1.3079">
        <ele>270</ele>
        <time>2023-04-25T11:48:33Z</time>
      </trkpt>
      <trkpt lat="44.40365" lon="1.30778">
        <ele>271</ele>
        <time>2023-04-25T11:48:45Z</time>
      </trkpt>
      <trkpt lat="44.40364" lon="1.30763">
        <ele>272</ele>
        <time>2023-04-25T11:49:00Z</time>
      </trkpt>
      <trkpt lat="44.4036" lon="1.30749">
        <ele>273</ele>
        <time>2023-04-25T11:49:14Z</time>
      </trkpt>
      <trkpt lat="44.40354" lon="1.3074">
        <ele>272</ele>
        <time>2023-04-25T11:49:26Z</time>
      </trkpt>
      <trkpt lat="44.40347" lon="1.30678">
        <ele>271</ele>
        <time>2023-04-25T11:50:25Z</time>
      </trkpt>
      <trkpt lat="44.4035" lon="1.30653">
        <ele>270</ele>
        <time>2023-04-25T11:50:50Z</time>
      </trkpt>
      <trkpt lat="44.40347" lon="1.30613">
        <ele>270</ele>
        <time>2023-04-25T11:51:28Z</time>
      </trkpt>
      <trkpt lat="44.4035" lon="1.30603">
        <ele>270</ele>
        <time>2023-04-25T11:51:38Z</time>
      </trkpt>
      <trkpt lat="44.40344" lon="1.30567">
        <ele>270</ele>
        <time>2023-04-25T11:52:14Z</time>
      </trkpt>
      <trkpt lat="44.40344" lon="1.30544">
        <ele>270</ele>
        <time>2023-04-25T11:52:36Z</time>
      </trkpt>
      <trkpt lat="44.40345" lon="1.30522">
        <ele>270</ele>
        <time>2023-04-25T11:52:57Z</time>
      </trkpt>
      <trkpt lat="44.4035" lon="1.30506">
        <ele>270</ele>
        <time>2023-04-25T11:53:13Z</time>
      </trkpt>
      <trkpt lat="44.40343" lon="1.30484">
        <ele>271</ele>
        <time>2023-04-25T11:53:36Z</time>
      </trkpt>
      <trkpt lat="44.40343" lon="1.3047">
        <ele>271</ele>
        <time>2023-04-25T11:53:49Z</time>
      </trkpt>
      <trkpt lat="44.40323" lon="1.30399">
        <ele>273</ele>
        <time>2023-04-25T11:55:02Z</time>
      </trkpt>
      <trkpt lat="44.40324" lon="1.3039">
        <ele>273</ele>
        <time>2023-04-25T11:55:11Z</time>
      </trkpt>
      <trkpt lat="44.4032" lon="1.30377">
        <ele>274</ele>
        <time>2023-04-25T11:55:24Z</time>
      </trkpt>
      <trkpt lat="44.40322" lon="1.30363">
        <ele>274</ele>
        <time>2023-04-25T11:55:38Z</time>
      </trkpt>
      <trkpt lat="44.40321" lon="1.30348">
        <ele>275</ele>
        <time>2023-04-25T11:55:52Z</time>
      </trkpt>
      <trkpt lat="44.4031" lon="1.30317">
        <ele>277</ele>
        <time>2023-04-25T11:56:25Z</time>
      </trkpt>
      <trkpt lat="44.40299" lon="1.30299">
        <ele>279</ele>
        <time>2023-04-25T11:56:48Z</time>
      </trkpt>
      <trkpt lat="44.40294" lon="1.30288">
        <ele>280</ele>
        <time>2023-04-25T11:57:00Z</time>
      </trkpt>
      <trkpt lat="44.40296" lon="1.3029">
        <ele>279</ele>
        <time>2023-04-25T11:57:04Z</time>
      </trkpt>
      <trkpt lat="44.40296" lon="1.30287">
        <ele>280</ele>
        <time>2023-04-25T11:57:07Z</time>
      </trkpt>
      <trkpt lat="44.40287" lon="1.30272">
        <ele>281</ele>
        <time>2023-04-25T11:57:25Z</time>
      </trkpt>
      <trkpt lat="44.40279" lon="1.30244">
        <ele>282</ele>
        <time>2023-04-25T11:57:54Z</time>
      </trkpt>
      <trkpt lat="44.40269" lon="1.3022">
        <ele>282</ele>
        <time>2023-04-25T11:58:20Z</time>
      </trkpt>
      <trkpt lat="44.40275" lon="1.30209">
        <ele>282</ele>
        <time>2023-04-25T11:58:34Z</time>
      </trkpt>
      <trkpt lat="44.40272" lon="1.30197">
        <ele>282</ele>
        <time>2023-04-25T11:58:46Z</time>
      </trkpt>
      <trkpt lat="44.40281" lon="1.30191">
        <ele>282</ele>
        <time>2023-04-25T11:58:59Z</time>
      </trkpt>
      <trkpt lat="44.40312" lon="1.30179">
        <ele>281</ele>
        <time>2023-04-25T11:59:42Z</time>
      </trkpt>
      <trkpt lat="44.40341" lon="1.30173">
        <ele>279</ele>
        <time>2023-04-25T12:00:21Z</time>
      </trkpt>
      <trkpt lat="44.40349" lon="1.30168">
        <ele>279</ele>
        <time>2023-04-25T12:00:33Z</time>
      </trkpt>
      <trkpt lat="44.40377" lon="1.30163">
        <ele>277</ele>
        <time>2023-04-25T12:01:10Z</time>
      </trkpt>
      <trkpt lat="44.40392" lon="1.30152">
        <ele>276</ele>
        <time>2023-04-25T12:01:33Z</time>
      </trkpt>
      <trkpt lat="44.4041" lon="1.30148">
        <ele>275</ele>
        <time>2023-04-25T12:01:57Z</time>
      </trkpt>
      <trkpt lat="44.40404" lon="1.30148">
        <ele>275</ele>
        <time>2023-04-25T12:02:05Z</time>
      </trkpt>
      <trkpt lat="44.40408" lon="1.30152">
        <ele>275</ele>
        <time>2023-04-25T12:02:12Z</time>
      </trkpt>
      <trkpt lat="44.40411" lon="1.3015">
        <ele>275</ele>
        <time>2023-04-25T12:02:16Z</time>
      </trkpt>
      <trkpt lat="44.40407" lon="1.30149">
        <ele>275</ele>
        <time>2023-04-25T12:02:22Z</time>
      </trkpt>
      <trkpt lat="44.40407" lon="1.30152">
        <ele>275</ele>
        <time>2023-04-25T12:02:25Z</time>
      </trkpt>
      <trkpt lat="44.40405" lon="1.30152">
        <ele>275</ele>
        <time>2023-04-25T12:02:27Z</time>
      </trkpt>
      <trkpt lat="44.40404" lon="1.30149">
        <ele>275</ele>
        <time>2023-04-25T12:02:31Z</time>
      </trkpt>
      <trkpt lat="44.4041" lon="1.30146">
        <ele>275</ele>
        <time>2023-04-25T12:02:39Z</time>
      </trkpt>
      <trkpt lat="44.40417" lon="1.30148">
        <ele>275</ele>
        <time>2023-04-25T12:02:49Z</time>
      </trkpt>
      <trkpt lat="44.40471" lon="1.30135">
        <ele>273</ele>
        <time>2023-04-25T12:04:02Z</time>
      </trkpt>
      <trkpt lat="44.40478" lon="1.30137">
        <ele>273</ele>
        <time>2023-04-25T12:04:11Z</time>
      </trkpt>
      <trkpt lat="44.40486" lon="1.30155">
        <ele>272</ele>
        <time>2023-04-25T12:04:31Z</time>
      </trkpt>
      <trkpt lat="44.40492" lon="1.30155">
        <ele>272</ele>
        <time>2023-04-25T12:04:39Z</time>
      </trkpt>
      <trkpt lat="44.40495" lon="1.30149">
        <ele>272</ele>
        <time>2023-04-25T12:04:46Z</time>
      </trkpt>
      <trkpt lat="44.40511" lon="1.30136">
        <ele>272</ele>
        <time>2023-04-25T12:05:11Z</time>
      </trkpt>
      <trkpt lat="44.40518" lon="1.30127">
        <ele>271</ele>
        <time>2023-04-25T12:05:24Z</time>
      </trkpt>
      <trkpt lat="44.40539" lon="1.30112">
        <ele>271</ele>
        <time>2023-04-25T12:05:55Z</time>
      </trkpt>
      <trkpt lat="44.40542" lon="1.30107">
        <ele>271</ele>
        <time>2023-04-25T12:06:01Z</time>
      </trkpt>
      <trkpt lat="44.40562" lon="1.30094">
        <ele>270</ele>
        <time>2023-04-25T12:06:31Z</time>
      </trkpt>
      <trkpt lat="44.40581" lon="1.30062">
        <ele>270</ele>
        <time>2023-04-25T12:07:11Z</time>
      </trkpt>
      <trkpt lat="44.40587" lon="1.30063">
        <ele>269</ele>
        <time>2023-04-25T12:07:19Z</time>
      </trkpt>
      <trkpt lat="44.40587" lon="1.30074">
        <ele>270</ele>
        <time>2023-04-25T12:07:29Z</time>
      </trkpt>
      <trkpt lat="44.40584" lon="1.3007">
        <ele>270</ele>
        <time>2023-04-25T12:07:35Z</time>
      </trkpt>
      <trkpt lat="44.40588" lon="1.30075">
        <ele>270</ele>
        <time>2023-04-25T12:07:42Z</time>
      </trkpt>
      <trkpt lat="44.40587" lon="1.30067">
        <ele>270</ele>
        <time>2023-04-25T12:07:50Z</time>
      </trkpt>
      <trkpt lat="44.40585" lon="1.30069">
        <ele>270</ele>
        <time>2023-04-25T12:07:53Z</time>
      </trkpt>
      <trkpt lat="44.40588" lon="1.30069">
        <ele>270</ele>
        <time>2023-04-25T12:07:57Z</time>
      </trkpt>
      <trkpt lat="44.40587" lon="1.30071">
        <ele>270</ele>
        <time>2023-04-25T12:07:59Z</time>
      </trkpt>
      <trkpt lat="44.40585" lon="1.30062">
        <ele>269</ele>
        <time>2023-04-25T12:08:08Z</time>
      </trkpt>
      <trkpt lat="44.40596" lon="1.30053">
        <ele>269</ele>
        <time>2023-04-25T12:08:25Z</time>
      </trkpt>
      <trkpt lat="44.40614" lon="1.30031">
        <ele>269</ele>
        <time>2023-04-25T12:08:57Z</time>
      </trkpt>
      <trkpt lat="44.40649" lon="1.30015">
        <ele>269</ele>
        <time>2023-04-25T12:09:46Z</time>
      </trkpt>
      <trkpt lat="44.40663" lon="1.30006">
        <ele>269</ele>
        <time>2023-04-25T12:10:07Z</time>
      </trkpt>
      <trkpt lat="44.4068" lon="1.30005">
        <ele>269</ele>
        <time>2023-04-25T12:10:29Z</time>
      </trkpt>
      <trkpt lat="44.40683" lon="1.3">
        <ele>269</ele>
        <time>2023-04-25T12:10:36Z</time>
      </trkpt>
      <trkpt lat="44.40692" lon="1.29994">
        <ele>268</ele>
        <time>2023-04-25T12:10:49Z</time>
      </trkpt>
      <trkpt lat="44.40697" lon="1.29992">
        <ele>268</ele>
        <time>2023-04-25T12:10:56Z</time>
      </trkpt>
      <trkpt lat="44.40704" lon="1.29994">
        <ele>268</ele>
        <time>2023-04-25T12:11:05Z</time>
      </trkpt>
      <trkpt lat="44.40712" lon="1.2999">
        <ele>267</ele>
        <time>2023-04-25T12:11:17Z</time>
      </trkpt>
      <trkpt lat="44.40724" lon="1.29981">
        <ele>267</ele>
        <time>2023-04-25T12:11:35Z</time>
      </trkpt>
      <trkpt lat="44.40735" lon="1.29966">
        <ele>266</ele>
        <time>2023-04-25T12:11:55Z</time>
      </trkpt>
      <trkpt lat="44.40742" lon="1.29964">
        <ele>266</ele>
        <time>2023-04-25T12:12:05Z</time>
      </trkpt>
      <trkpt lat="44.40755" lon="1.2995">
        <ele>265</ele>
        <time>2023-04-25T12:12:27Z</time>
      </trkpt>
      <trkpt lat="44.40751" lon="1.29929">
        <ele>264</ele>
        <time>2023-04-25T12:12:48Z</time>
      </trkpt>
      <trkpt lat="44.40729" lon="1.29902">
        <ele>263</ele>
        <time>2023-04-25T12:13:27Z</time>
      </trkpt>
      <trkpt lat="44.40715" lon="1.29891">
        <ele>263</ele>
        <time>2023-04-25T12:13:48Z</time>
      </trkpt>
      <trkpt lat="44.4071" lon="1.29877">
        <ele>262</ele>
        <time>2023-04-25T12:14:03Z</time>
      </trkpt>
      <trkpt lat="44.40719" lon="1.2983">
        <ele>260</ele>
        <time>2023-04-25T12:14:49Z</time>
      </trkpt>
      <trkpt lat="44.40729" lon="1.29807">
        <ele>260</ele>
        <time>2023-04-25T12:15:15Z</time>
      </trkpt>
      <trkpt lat="44.40745" lon="1.29789">
        <ele>259</ele>
        <time>2023-04-25T12:15:42Z</time>
      </trkpt>
      <trkpt lat="44.40753" lon="1.29772">
        <ele>258</ele>
        <time>2023-04-25T12:16:02Z</time>
      </trkpt>
      <trkpt lat="44.40759" lon="1.29768">
        <ele>258</ele>
        <time>2023-04-25T12:16:11Z</time>
      </trkpt>
      <trkpt lat="44.40772" lon="1.29737">
        <ele>257</ele>
        <time>2023-04-25T12:16:45Z</time>
      </trkpt>
      <trkpt lat="44.40793" lon="1.29721">
        <ele>256</ele>
        <time>2023-04-25T12:17:17Z</time>
      </trkpt>
      <trkpt lat="44.40805" lon="1.29717">
        <ele>256</ele>
        <time>2023-04-25T12:17:33Z</time>
      </trkpt>
      <trkpt lat="44.40809" lon="1.29709">
        <ele>255</ele>
        <time>2023-04-25T12:17:43Z</time>
      </trkpt>
      <trkpt lat="44.40806" lon="1.29662">
        <ele>255</ele>
        <time>2023-04-25T12:18:28Z</time>
      </trkpt>
      <trkpt lat="44.40798" lon="1.29634">
        <ele>256</ele>
        <time>2023-04-25T12:18:56Z</time>
      </trkpt>
      <trkpt lat="44.40799" lon="1.29632">
        <ele>256</ele>
        <time>2023-04-25T12:18:59Z</time>
      </trkpt>
      <trkpt lat="44.40801" lon="1.29637">
        <ele>256</ele>
        <time>2023-04-25T12:19:04Z</time>
      </trkpt>
      <trkpt lat="44.40803" lon="1.29635">
        <ele>256</ele>
        <time>2023-04-25T12:19:07Z</time>
      </trkpt>
      <trkpt lat="44.40801" lon="1.29626">
        <ele>256</ele>
        <time>2023-04-25T12:19:16Z</time>
      </trkpt>
      <trkpt lat="44.40801" lon="1.29635">
        <ele>256</ele>
        <time>2023-04-25T12:19:25Z</time>
      </trkpt>
      <trkpt lat="44.40797" lon="1.29631">
        <ele>257</ele>
        <time>2023-04-25T12:19:32Z</time>
      </trkpt>
      <trkpt lat="44.40799" lon="1.29632">
        <ele>256</ele>
        <time>2023-04-25T12:19:34Z</time>
      </trkpt>
      <trkpt lat="44.40798" lon="1.29634">
        <ele>256</ele>
        <time>2023-04-25T12:19:37Z</time>
      </trkpt>
      <trkpt lat="44.40795" lon="1.29633">
        <ele>257</ele>
        <time>2023-04-25T12:19:41Z</time>
      </trkpt>
      <trkpt lat="44.40796" lon="1.2963">
        <ele>257</ele>
        <time>2023-04-25T12:19:44Z</time>
      </trkpt>
      <trkpt lat="44.40799" lon="1.29632">
        <ele>256</ele>
        <time>2023-04-25T12:19:48Z</time>
      </trkpt>
      <trkpt lat="44.40797" lon="1.29629">
        <ele>257</ele>
        <time>2023-04-25T12:19:52Z</time>
      </trkpt>
      <trkpt lat="44.40799" lon="1.29635">
        <ele>256</ele>
        <time>2023-04-25T12:19:59Z</time>
      </trkpt>
      <trkpt lat="44.40798" lon="1.29631">
        <ele>257</ele>
        <time>2023-04-25T12:20:03Z</time>
      </trkpt>
      <trkpt lat="44.40804" lon="1.2964">
        <ele>256</ele>
        <time>2023-04-25T12:20:14Z</time>
      </trkpt>
      <trkpt lat="44.40805" lon="1.29638">
        <ele>256</ele>
        <time>2023-04-25T12:20:17Z</time>
      </trkpt>
      <trkpt lat="44.40804" lon="1.29635">
        <ele>256</ele>
        <time>2023-04-25T12:20:20Z</time>
      </trkpt>
      <trkpt lat="44.40799" lon="1.29633">
        <ele>256</ele>
        <time>2023-04-25T12:20:27Z</time>
      </trkpt>
      <trkpt lat="44.40795" lon="1.29636">
        <ele>257</ele>
        <time>2023-04-25T12:20:33Z</time>
      </trkpt>
      <trkpt lat="44.40793" lon="1.29635">
        <ele>257</ele>
        <time>2023-04-25T12:20:36Z</time>
      </trkpt>
      <trkpt lat="44.40793" lon="1.29624">
        <ele>257</ele>
        <time>2023-04-25T12:20:46Z</time>
      </trkpt>
      <trkpt lat="44.40791" lon="1.29625">
        <ele>257</ele>
        <time>2023-04-25T12:20:49Z</time>
      </trkpt>
      <trkpt lat="44.40789" lon="1.2962">
        <ele>258</ele>
        <time>2023-04-25T12:20:54Z</time>
      </trkpt>
      <trkpt lat="44.40788" lon="1.2961">
        <ele>258</ele>
        <time>2023-04-25T12:21:04Z</time>
      </trkpt>
      <trkpt lat="44.40794" lon="1.29591">
        <ele>258</ele>
        <time>2023-04-25T12:21:24Z</time>
      </trkpt>
      <trkpt lat="44.40798" lon="1.29584">
        <ele>258</ele>
        <time>2023-04-25T12:21:32Z</time>
      </trkpt>
      <trkpt lat="44.40815" lon="1.29571">
        <ele>256</ele>
        <time>2023-04-25T12:21:58Z</time>
      </trkpt>
      <trkpt lat="44.40832" lon="1.29548">
        <ele>255</ele>
        <time>2023-04-25T12:22:30Z</time>
      </trkpt>
      <trkpt lat="44.40841" lon="1.29521">
        <ele>254</ele>
        <time>2023-04-25T12:22:58Z</time>
      </trkpt>
      <trkpt lat="44.40842" lon="1.29507">
        <ele>255</ele>
        <time>2023-04-25T12:23:12Z</time>
      </trkpt>
      <trkpt lat="44.40847" lon="1.29495">
        <ele>254</ele>
        <time>2023-04-25T12:23:25Z</time>
      </trkpt>
      <trkpt lat="44.40855" lon="1.29458">
        <ele>253</ele>
        <time>2023-04-25T12:24:02Z</time>
      </trkpt>
      <trkpt lat="44.40862" lon="1.29453">
        <ele>253</ele>
        <time>2023-04-25T12:24:12Z</time>
      </trkpt>
      <trkpt lat="44.4087" lon="1.29453">
        <ele>253</ele>
        <time>2023-04-25T12:24:23Z</time>
      </trkpt>
      <trkpt lat="44.40884" lon="1.29457">
        <ele>252</ele>
        <time>2023-04-25T12:24:42Z</time>
      </trkpt>
      <trkpt lat="44.40888" lon="1.29461">
        <ele>252</ele>
        <time>2023-04-25T12:24:49Z</time>
      </trkpt>
      <trkpt lat="44.40899" lon="1.29465">
        <ele>252</ele>
        <time>2023-04-25T12:25:04Z</time>
      </trkpt>
      <trkpt lat="44.40905" lon="1.29453">
        <ele>252</ele>
        <time>2023-04-25T12:25:18Z</time>
      </trkpt>
      <trkpt lat="44.40916" lon="1.29442">
        <ele>252</ele>
        <time>2023-04-25T12:25:36Z</time>
      </trkpt>
      <trkpt lat="44.40926" lon="1.29417">
        <ele>253</ele>
        <time>2023-04-25T12:26:03Z</time>
      </trkpt>
      <trkpt lat="44.40936" lon="1.29406">
        <ele>253</ele>
        <time>2023-04-25T12:26:20Z</time>
      </trkpt>
      <trkpt lat="44.40949" lon="1.29369">
        <ele>254</ele>
        <time>2023-04-25T12:26:59Z</time>
      </trkpt>
      <trkpt lat="44.40983" lon="1.29304">
        <ele>257</ele>
        <time>2023-04-25T12:28:16Z</time>
      </trkpt>
      <trkpt lat="44.40991" lon="1.29273">
        <ele>257</ele>
        <time>2023-04-25T12:28:48Z</time>
      </trkpt>
      <trkpt lat="44.40997" lon="1.29262">
        <ele>258</ele>
        <time>2023-04-25T12:29:01Z</time>
      </trkpt>
      <trkpt lat="44.41007" lon="1.29215">
        <ele>260</ele>
        <time>2023-04-25T12:29:47Z</time>
      </trkpt>
      <trkpt lat="44.41015" lon="1.29193">
        <ele>261</ele>
        <time>2023-04-25T12:30:11Z</time>
      </trkpt>
      <trkpt lat="44.41014" lon="1.29172">
        <ele>261</ele>
        <time>2023-04-25T12:30:31Z</time>
      </trkpt>
      <trkpt lat="44.41017" lon="1.29157">
        <ele>262</ele>
        <time>2023-04-25T12:30:46Z</time>
      </trkpt>
      <trkpt lat="44.41027" lon="1.29141">
        <ele>263</ele>
        <time>2023-04-25T12:31:06Z</time>
      </trkpt>
      <trkpt lat="44.41032" lon="1.29124">
        <ele>264</ele>
        <time>2023-04-25T12:31:24Z</time>
      </trkpt>
      <trkpt lat="44.41044" lon="1.29113">
        <ele>265</ele>
        <time>2023-04-25T12:31:43Z</time>
      </trkpt>
      <trkpt lat="44.41051" lon="1.29098">
        <ele>265</ele>
        <time>2023-04-25T12:32:00Z</time>
      </trkpt>
      <trkpt lat="44.41068" lon="1.29076">
        <ele>267</ele>
        <time>2023-04-25T12:32:31Z</time>
      </trkpt>
      <trkpt lat="44.41073" lon="1.29057">
        <ele>267</ele>
        <time>2023-04-25T12:32:50Z</time>
      </trkpt>
      <trkpt lat="44.41085" lon="1.29045">
        <ele>268</ele>
        <time>2023-04-25T12:33:10Z</time>
      </trkpt>
      <trkpt lat="44.411" lon="1.29019">
        <ele>270</ele>
        <time>2023-04-25T12:33:42Z</time>
      </trkpt>
      <trkpt lat="44.41116" lon="1.29009">
        <ele>272</ele>
        <time>2023-04-25T12:34:05Z</time>
      </trkpt>
      <trkpt lat="44.41118" lon="1.29001">
        <ele>273</ele>
        <time>2023-04-25T12:34:13Z</time>
      </trkpt>
      <trkpt lat="44.41114" lon="1.2899">
        <ele>273</ele>
        <time>2023-04-25T12:34:25Z</time>
      </trkpt>
      <trkpt lat="44.41108" lon="1.28984">
        <ele>273</ele>
        <time>2023-04-25T12:34:35Z</time>
      </trkpt>
      <trkpt lat="44.41088" lon="1.28946">
        <ele>273</ele>
        <time>2023-04-25T12:35:20Z</time>
      </trkpt>
      <trkpt lat="44.41055" lon="1.2891">
        <ele>276</ele>
        <time>2023-04-25T12:36:16Z</time>
      </trkpt>
      <trkpt lat="44.41053" lon="1.28905">
        <ele>276</ele>
        <time>2023-04-25T12:36:21Z</time>
      </trkpt>
      <trkpt lat="44.41031" lon="1.28883">
        <ele>278</ele>
        <time>2023-04-25T12:36:57Z</time>
      </trkpt>
      <trkpt lat="44.41027" lon="1.28872">
        <ele>279</ele>
        <time>2023-04-25T12:37:09Z</time>
      </trkpt>
      <trkpt lat="44.41029" lon="1.28864">
        <ele>279</ele>
        <time>2023-04-25T12:37:17Z</time>
      </trkpt>
      <trkpt lat="44.4108" lon="1.28807">
        <ele>281</ele>
        <time>2023-04-25T12:38:44Z</time>
      </trkpt>
      <trkpt lat="44.41093" lon="1.28787">
        <ele>282</ele>
        <time>2023-04-25T12:39:10Z</time>
      </trkpt>
      <trkpt lat="44.41126" lon="1.28751">
        <ele>286</ele>
        <time>2023-04-25T12:40:06Z</time>
      </trkpt>
      <trkpt lat="44.41133" lon="1.28748">
        <ele>286</ele>
        <time>2023-04-25T12:40:15Z</time>
      </trkpt>
      <trkpt lat="44.41137" lon="1.28755">
        <ele>286</ele>
        <time>2023-04-25T12:40:24Z</time>
      </trkpt>
      <trkpt lat="44.41139" lon="1.28754">
        <ele>287</ele>
        <time>2023-04-25T12:40:27Z</time>
      </trkpt>
      <trkpt lat="44.41141" lon="1.28752">
        <ele>287</ele>
        <time>2023-04-25T12:40:30Z</time>
      </trkpt>
      <trkpt lat="44.41141" lon="1.28745">
        <ele>287</ele>
        <time>2023-04-25T12:40:37Z</time>
      </trkpt>
      <trkpt lat="44.41146" lon="1.28745">
        <ele>287</ele>
        <time>2023-04-25T12:40:43Z</time>
      </trkpt>
      <trkpt lat="44.41166" lon="1.28719">
        <ele>289</ele>
        <time>2023-04-25T12:41:20Z</time>
      </trkpt>
      <trkpt lat="44.41183" lon="1.28702">
        <ele>290</ele>
        <time>2023-04-25T12:41:48Z</time>
      </trkpt>
      <trkpt lat="44.41196" lon="1.28693">
        <ele>290</ele>
        <time>2023-04-25T12:42:07Z</time>
      </trkpt>
      <trkpt lat="44.41222" lon="1.28667">
        <ele>291</ele>
        <time>2023-04-25T12:42:50Z</time>
      </trkpt>
      <trkpt lat="44.41233" lon="1.28659">
        <ele>292</ele>
        <time>2023-04-25T12:43:06Z</time>
      </trkpt>
      <trkpt lat="44.41244" lon="1.2864">
        <ele>293</ele>
        <time>2023-04-25T12:43:30Z</time>
      </trkpt>
      <trkpt lat="44.41262" lon="1.28625">
        <ele>293</ele>
        <time>2023-04-25T12:43:58Z</time>
      </trkpt>
      <trkpt lat="44.41285" lon="1.28648">
        <ele>292</ele>
        <time>2023-04-25T12:44:35Z</time>
      </trkpt>
      <trkpt lat="44.41315" lon="1.28693">
        <ele>289</ele>
        <time>2023-04-25T12:45:34Z</time>
      </trkpt>
      <trkpt lat="44.41319" lon="1.28695">
        <ele>289</ele>
        <time>2023-04-25T12:45:40Z</time>
      </trkpt>
      <trkpt lat="44.41333" lon="1.28693">
        <ele>289</ele>
        <time>2023-04-25T12:45:58Z</time>
      </trkpt>
      <trkpt lat="44.41345" lon="1.28696">
        <ele>288</ele>
        <time>2023-04-25T12:46:15Z</time>
      </trkpt>
      <trkpt lat="44.41362" lon="1.28709">
        <ele>287</ele>
        <time>2023-04-25T12:46:40Z</time>
      </trkpt>
      <trkpt lat="44.41374" lon="1.28712">
        <ele>286</ele>
        <time>2023-04-25T12:46:57Z</time>
      </trkpt>
      <trkpt lat="44.41386" lon="1.28713">
        <ele>285</ele>
        <time>2023-04-25T12:47:13Z</time>
      </trkpt>
      <trkpt lat="44.41398" lon="1.28708">
        <ele>285</ele>
        <time>2023-04-25T12:47:30Z</time>
      </trkpt>
      <trkpt lat="44.41408" lon="1.28701">
        <ele>285</ele>
        <time>2023-04-25T12:47:44Z</time>
      </trkpt>
      <trkpt lat="44.41427" lon="1.28681">
        <ele>284</ele>
        <time>2023-04-25T12:48:16Z</time>
      </trkpt>
      <trkpt lat="44.41463" lon="1.28666">
        <ele>282</ele>
        <time>2023-04-25T12:49:06Z</time>
      </trkpt>
      <trkpt lat="44.41467" lon="1.28668">
        <ele>282</ele>
        <time>2023-04-25T12:49:12Z</time>
      </trkpt>
      <trkpt lat="44.41489" lon="1.28698">
        <ele>281</ele>
        <time>2023-04-25T12:49:53Z</time>
      </trkpt>
      <trkpt lat="44.41507" lon="1.28711">
        <ele>280</ele>
        <time>2023-04-25T12:50:20Z</time>
      </trkpt>
      <trkpt lat="44.41519" lon="1.28708">
        <ele>279</ele>
        <time>2023-04-25T12:50:36Z</time>
      </trkpt>
      <trkpt lat="44.41533" lon="1.28696">
        <ele>278</ele>
        <time>2023-04-25T12:50:58Z</time>
      </trkpt>
      <trkpt lat="44.41551" lon="1.2869">
        <ele>276</ele>
        <time>2023-04-25T12:51:23Z</time>
      </trkpt>
      <trkpt lat="44.4157" lon="1.28699">
        <ele>274</ele>
        <time>2023-04-25T12:51:50Z</time>
      </trkpt>
      <trkpt lat="44.41582" lon="1.28711">
        <ele>273</ele>
        <time>2023-04-25T12:52:09Z</time>
      </trkpt>
      <trkpt lat="44.41591" lon="1.28716">
        <ele>272</ele>
        <time>2023-04-25T12:52:22Z</time>
      </trkpt>
      <trkpt lat="44.41601" lon="1.28715">
        <ele>272</ele>
        <time>2023-04-25T12:52:36Z</time>
      </trkpt>
      <trkpt lat="44.41621" lon="1.287">
        <ele>272</ele>
        <time>2023-04-25T12:53:06Z</time>
      </trkpt>
      <trkpt lat="44.41624" lon="1.28696">
        <ele>272</ele>
        <time>2023-04-25T12:53:11Z</time>
      </trkpt>
      <trkpt lat="44.41625" lon="1.28687">
        <ele>273</ele>
        <time>2023-04-25T12:53:20Z</time>
      </trkpt>
      <trkpt lat="44.4163" lon="1.28686">
        <ele>273</ele>
        <time>2023-04-25T12:53:27Z</time>
      </trkpt>
      <trkpt lat="44.41639" lon="1.28695">
        <ele>272</ele>
        <time>2023-04-25T12:53:42Z</time>
      </trkpt>
      <trkpt lat="44.41647" lon="1.28717">
        <ele>269</ele>
        <time>2023-04-25T12:54:05Z</time>
      </trkpt>
      <trkpt lat="44.41658" lon="1.28728">
        <ele>267</ele>
        <time>2023-04-25T12:54:23Z</time>
      </trkpt>
      <trkpt lat="44.41667" lon="1.28719">
        <ele>268</ele>
        <time>2023-04-25T12:54:38Z</time>
      </trkpt>
      <trkpt lat="44.41673" lon="1.2873">
        <ele>266</ele>
        <time>2023-04-25T12:54:51Z</time>
      </trkpt>
      <trkpt lat="44.41693" lon="1.28739">
        <ele>265</ele>
        <time>2023-04-25T12:55:19Z</time>
      </trkpt>
      <trkpt lat="44.41702" lon="1.28744">
        <ele>264</ele>
        <time>2023-04-25T12:55:32Z</time>
      </trkpt>
      <trkpt lat="44.41705" lon="1.28749">
        <ele>263</ele>
        <time>2023-04-25T12:55:38Z</time>
      </trkpt>
      <trkpt lat="44.41711" lon="1.28751">
        <ele>263</ele>
        <time>2023-04-25T12:55:46Z</time>
      </trkpt>
      <trkpt lat="44.41718" lon="1.28747">
        <ele>263</ele>
        <time>2023-04-25T12:55:57Z</time>
      </trkpt>
      <trkpt lat="44.41724" lon="1.28735">
        <ele>265</ele>
        <time>2023-04-25T12:56:11Z</time>
      </trkpt>
      <trkpt lat="44.41729" lon="1.28733">
        <ele>265</ele>
        <time>2023-04-25T12:56:17Z</time>
      </trkpt>
      <trkpt lat="44.41741" lon="1.28734">
        <ele>264</ele>
        <time>2023-04-25T12:56:34Z</time>
      </trkpt>
      <trkpt lat="44.41756" lon="1.2874">
        <ele>263</ele>
        <time>2023-04-25T12:56:54Z</time>
      </trkpt>
      <trkpt lat="44.4177" lon="1.28731">
        <ele>264</ele>
        <time>2023-04-25T12:57:15Z</time>
      </trkpt>
      <trkpt lat="44.41794" lon="1.28741">
        <ele>262</ele>
        <time>2023-04-25T12:57:48Z</time>
      </trkpt>
      <trkpt lat="44.418" lon="1.28741">
        <ele>262</ele>
        <time>2023-04-25T12:57:56Z</time>
      </trkpt>
      <trkpt lat="44.41813" lon="1.28736">
        <ele>262</ele>
        <time>2023-04-25T12:58:14Z</time>
      </trkpt>
      <trkpt lat="44.41826" lon="1.28727">
        <ele>263</ele>
        <time>2023-04-25T12:58:34Z</time>
      </trkpt>
      <trkpt lat="44.41844" lon="1.28725">
        <ele>263</ele>
        <time>2023-04-25T12:58:58Z</time>
      </trkpt>
      <trkpt lat="44.41855" lon="1.28726">
        <ele>263</ele>
        <time>2023-04-25T12:59:12Z</time>
      </trkpt>
      <trkpt lat="44.41864" lon="1.28735">
        <ele>262</ele>
        <time>2023-04-25T12:59:27Z</time>
      </trkpt>
      <trkpt lat="44.41868" lon="1.28735">
        <ele>262</ele>
        <time>2023-04-25T12:59:33Z</time>
      </trkpt>
      <trkpt lat="44.41878" lon="1.28741">
        <ele>262</ele>
        <time>2023-04-25T12:59:47Z</time>
      </trkpt>
      <trkpt lat="44.41901" lon="1.28731">
        <ele>263</ele>
        <time>2023-04-25T13:00:19Z</time>
      </trkpt>
      <trkpt lat="44.41924" lon="1.28726">
        <ele>263</ele>
        <time>2023-04-25T13:00:50Z</time>
      </trkpt>
      <trkpt lat="44.4195" lon="1.28707">
        <ele>262</ele>
        <time>2023-04-25T13:01:29Z</time>
      </trkpt>
      <trkpt lat="44.41954" lon="1.2871">
        <ele>262</ele>
        <time>2023-04-25T13:01:35Z</time>
      </trkpt>
      <trkpt lat="44.4196" lon="1.2871">
        <ele>262</ele>
        <time>2023-04-25T13:01:43Z</time>
      </trkpt>
      <trkpt lat="44.41972" lon="1.287">
        <ele>261</ele>
        <time>2023-04-25T13:02:02Z</time>
      </trkpt>
      <trkpt lat="44.41985" lon="1.28696">
        <ele>261</ele>
        <time>2023-04-25T13:02:20Z</time>
      </trkpt>
      <trkpt lat="44.42" lon="1.28687">
        <ele>261</ele>
        <time>2023-04-25T13:02:42Z</time>
      </trkpt>
      <trkpt lat="44.42025" lon="1.28667">
        <ele>260</ele>
        <time>2023-04-25T13:03:20Z</time>
      </trkpt>
      <trkpt lat="44.42035" lon="1.28663">
        <ele>260</ele>
        <time>2023-04-25T13:03:34Z</time>
      </trkpt>
      <trkpt lat="44.42043" lon="1.28652">
        <ele>260</ele>
        <time>2023-04-25T13:03:49Z</time>
      </trkpt>
      <trkpt lat="44.42053" lon="1.28644">
        <ele>259</ele>
        <time>2023-04-25T13:04:04Z</time>
      </trkpt>
      <trkpt lat="44.4206" lon="1.28628">
        <ele>259</ele>
        <time>2023-04-25T13:04:22Z</time>
      </trkpt>
      <trkpt lat="44.42077" lon="1.28614">
        <ele>259</ele>
        <time>2023-04-25T13:04:48Z</time>
      </trkpt>
      <trkpt lat="44.4208" lon="1.28609">
        <ele>259</ele>
        <time>2023-04-25T13:04:55Z</time>
      </trkpt>
      <trkpt lat="44.42089" lon="1.28606">
        <ele>259</ele>
        <time>2023-04-25T13:05:07Z</time>
      </trkpt>
      <trkpt lat="44.42127" lon="1.28583">
        <ele>263</ele>
        <time>2023-04-25T13:06:02Z</time>
      </trkpt>
      <trkpt lat="44.42131" lon="1.28584">
        <ele>263</ele>
        <time>2023-04-25T13:06:08Z</time>
      </trkpt>
      <trkpt lat="44.42141" lon="1.28576">
        <ele>264</ele>
        <time>2023-04-25T13:06:23Z</time>
      </trkpt>
      <trkpt lat="44.42146" lon="1.28575">
        <ele>264</ele>
        <time>2023-04-25T13:06:30Z</time>
      </trkpt>
      <trkpt lat="44.42156" lon="1.28582">
        <ele>265</ele>
        <time>2023-04-25T13:06:45Z</time>
      </trkpt>
      <trkpt lat="44.42159" lon="1.2858">
        <ele>265</ele>
        <time>2023-04-25T13:06:49Z</time>
      </trkpt>
      <trkpt lat="44.42167" lon="1.28582">
        <ele>266</ele>
        <time>2023-04-25T13:07:00Z</time>
      </trkpt>
      <trkpt lat="44.42179" lon="1.28581">
        <ele>267</ele>
        <time>2023-04-25T13:07:16Z</time>
      </trkpt>
      <trkpt lat="44.42187" lon="1.28585">
        <ele>267</ele>
        <time>2023-04-25T13:07:27Z</time>
      </trkpt>
      <trkpt lat="44.42223" lon="1.2859">
        <ele>268</ele>
        <time>2023-04-25T13:08:16Z</time>
      </trkpt>
      <trkpt lat="44.42243" lon="1.2859">
        <ele>269</ele>
        <time>2023-04-25T13:08:42Z</time>
      </trkpt>
      <trkpt lat="44.42259" lon="1.28598">
        <ele>270</ele>
        <time>2023-04-25T13:09:05Z</time>
      </trkpt>
      <trkpt lat="44.42291" lon="1.286">
        <ele>269</ele>
        <time>2023-04-25T13:09:48Z</time>
      </trkpt>
      <trkpt lat="44.42314" lon="1.28608">
        <ele>269</ele>
        <time>2023-04-25T13:10:19Z</time>
      </trkpt>
      <trkpt lat="44.42324" lon="1.28607">
        <ele>269</ele>
        <time>2023-04-25T13:10:33Z</time>
      </trkpt>
      <trkpt lat="44.42339" lon="1.28601">
        <ele>268</ele>
        <time>2023-04-25T13:10:54Z</time>
      </trkpt>
      <trkpt lat="44.42345" lon="1.28595">
        <ele>268</ele>
        <time>2023-04-25T13:11:03Z</time>
      </trkpt>
      <trkpt lat="44.42356" lon="1.2859">
        <ele>268</ele>
        <time>2023-04-25T13:11:19Z</time>
      </trkpt>
      <trkpt lat="44.4237" lon="1.28587">
        <ele>267</ele>
        <time>2023-04-25T13:11:38Z</time>
      </trkpt>
      <trkpt lat="44.42395" lon="1.28572">
        <ele>267</ele>
        <time>2023-04-25T13:12:14Z</time>
      </trkpt>
      <trkpt lat="44.42422" lon="1.2856">
        <ele>266</ele>
        <time>2023-04-25T13:12:52Z</time>
      </trkpt>
      <trkpt lat="44.42433" lon="1.28546">
        <ele>265</ele>
        <time>2023-04-25T13:13:12Z</time>
      </trkpt>
      <trkpt lat="44.42445" lon="1.28514">
        <ele>266</ele>
        <time>2023-04-25T13:13:46Z</time>
      </trkpt>
      <trkpt lat="44.42453" lon="1.28503">
        <ele>266</ele>
        <time>2023-04-25T13:14:01Z</time>
      </trkpt>
      <trkpt lat="44.42456" lon="1.28494">
        <ele>266</ele>
        <time>2023-04-25T13:14:11Z</time>
      </trkpt>
      <trkpt lat="44.42477" lon="1.28474">
        <ele>266</ele>
        <time>2023-04-25T13:14:44Z</time>
      </trkpt>
      <trkpt lat="44.42488" lon="1.28475">
        <ele>265</ele>
        <time>2023-04-25T13:14:59Z</time>
      </trkpt>
      <trkpt lat="44.42502" lon="1.28469">
        <ele>265</ele>
        <time>2023-04-25T13:15:19Z</time>
      </trkpt>
      <trkpt lat="44.42508" lon="1.28463">
        <ele>265</ele>
        <time>2023-04-25T13:15:29Z</time>
      </trkpt>
      <trkpt lat="44.42521" lon="1.28461">
        <ele>266</ele>
        <time>2023-04-25T13:15:46Z</time>
      </trkpt>
      <trkpt lat="44.42526" lon="1.28457">
        <ele>266</ele>
        <time>2023-04-25T13:15:54Z</time>
      </trkpt>
      <trkpt lat="44.42544" lon="1.28453">
        <ele>266</ele>
        <time>2023-04-25T13:16:18Z</time>
      </trkpt>
      <trkpt lat="44.42579" lon="1.28451">
        <ele>267</ele>
        <time>2023-04-25T13:17:05Z</time>
      </trkpt>
      <trkpt lat="44.42597" lon="1.28454">
        <ele>267</ele>
        <time>2023-04-25T13:17:29Z</time>
      </trkpt>
      <trkpt lat="44.42599" lon="1.28461">
        <ele>267</ele>
        <time>2023-04-25T13:17:36Z</time>
      </trkpt>
      <trkpt lat="44.42603" lon="1.28464">
        <ele>267</ele>
        <time>2023-04-25T13:17:42Z</time>
      </trkpt>
      <trkpt lat="44.42635" lon="1.28478">
        <ele>267</ele>
        <time>2023-04-25T13:18:27Z</time>
      </trkpt>
      <trkpt lat="44.42643" lon="1.28485">
        <ele>268</ele>
        <time>2023-04-25T13:18:40Z</time>
      </trkpt>
      <trkpt lat="44.4265" lon="1.28486">
        <ele>268</ele>
        <time>2023-04-25T13:18:49Z</time>
      </trkpt>
      <trkpt lat="44.42655" lon="1.28492">
        <ele>268</ele>
        <time>2023-04-25T13:18:58Z</time>
      </trkpt>
      <trkpt lat="44.42659" lon="1.28498">
        <ele>269</ele>
        <time>2023-04-25T13:19:06Z</time>
      </trkpt>
      <trkpt lat="44.42657" lon="1.28515">
        <ele>267</ele>
        <time>2023-04-25T13:19:22Z</time>
      </trkpt>
      <trkpt lat="44.42669" lon="1.2853">
        <ele>266</ele>
        <time>2023-04-25T13:19:43Z</time>
      </trkpt>
      <trkpt lat="44.42666" lon="1.2855">
        <ele>264</ele>
        <time>2023-04-25T13:20:03Z</time>
      </trkpt>
      <trkpt lat="44.42675" lon="1.28565">
        <ele>263</ele>
        <time>2023-04-25T13:20:22Z</time>
      </trkpt>
      <trkpt lat="44.42675" lon="1.28571">
        <ele>262</ele>
        <time>2023-04-25T13:20:27Z</time>
      </trkpt>
      <trkpt lat="44.4268" lon="1.28582">
        <ele>262</ele>
        <time>2023-04-25T13:20:40Z</time>
      </trkpt>
      <trkpt lat="44.42684" lon="1.28577">
        <ele>262</ele>
        <time>2023-04-25T13:20:47Z</time>
      </trkpt>
      <trkpt lat="44.42691" lon="1.28576">
        <ele>263</ele>
        <time>2023-04-25T13:20:56Z</time>
      </trkpt>
      <trkpt lat="44.42704" lon="1.28567">
        <ele>264</ele>
        <time>2023-04-25T13:21:16Z</time>
      </trkpt>
      <trkpt lat="44.42737" lon="1.28559">
        <ele>265</ele>
        <time>2023-04-25T13:22:00Z</time>
      </trkpt>
      <trkpt lat="44.42744" lon="1.28553">
        <ele>266</ele>
        <time>2023-04-25T13:22:11Z</time>
      </trkpt>
      <trkpt lat="44.42771" lon="1.2856">
        <ele>265</ele>
        <time>2023-04-25T13:22:48Z</time>
      </trkpt>
      <trkpt lat="44.42779" lon="1.28565">
        <ele>265</ele>
        <time>2023-04-25T13:23:00Z</time>
      </trkpt>
      <trkpt lat="44.42767" lon="1.28574">
        <ele>265</ele>
        <time>2023-04-25T13:23:18Z</time>
      </trkpt>
      <trkpt lat="44.4277" lon="1.28578">
        <ele>265</ele>
        <time>2023-04-25T13:23:23Z</time>
      </trkpt>
      <trkpt lat="44.42763" lon="1.28578">
        <ele>265</ele>
        <time>2023-04-25T13:23:33Z</time>
      </trkpt>
      <trkpt lat="44.42768" lon="1.28581">
        <ele>265</ele>
        <time>2023-04-25T13:23:40Z</time>
      </trkpt>
      <trkpt lat="44.4277" lon="1.28586">
        <ele>265</ele>
        <time>2023-04-25T13:23:45Z</time>
      </trkpt>
      <trkpt lat="44.42767" lon="1.28594">
        <ele>264</ele>
        <time>2023-04-25T13:23:54Z</time>
      </trkpt>
      <trkpt lat="44.42763" lon="1.28594">
        <ele>264</ele>
        <time>2023-04-25T13:23:59Z</time>
      </trkpt>
      <trkpt lat="44.42778" lon="1.28583">
        <ele>265</ele>
        <time>2023-04-25T13:24:22Z</time>
      </trkpt>
      <trkpt lat="44.42774" lon="1.28577">
        <ele>265</ele>
        <time>2023-04-25T13:24:30Z</time>
      </trkpt>
      <trkpt lat="44.4278" lon="1.28583">
        <ele>265</ele>
        <time>2023-04-25T13:24:40Z</time>
      </trkpt>
      <trkpt lat="44.42772" lon="1.28576">
        <ele>265</ele>
        <time>2023-04-25T13:24:52Z</time>
      </trkpt>
      <trkpt lat="44.4277" lon="1.28578">
        <ele>265</ele>
        <time>2023-04-25T13:24:55Z</time>
      </trkpt>
      <trkpt lat="44.42772" lon="1.28584">
        <ele>265</ele>
        <time>2023-04-25T13:25:02Z</time>
      </trkpt>
      <trkpt lat="44.4278" lon="1.28589">
        <ele>264</ele>
        <time>2023-04-25T13:25:13Z</time>
      </trkpt>
      <trkpt lat="44.42781" lon="1.28597">
        <ele>264</ele>
        <time>2023-04-25T13:25:21Z</time>
      </trkpt>
      <trkpt lat="44.4278" lon="1.28589">
        <ele>264</ele>
        <time>2023-04-25T13:25:29Z</time>
      </trkpt>
      <trkpt lat="44.42774" lon="1.28587">
        <ele>265</ele>
        <time>2023-04-25T13:25:37Z</time>
      </trkpt>
      <trkpt lat="44.4277" lon="1.28605">
        <ele>263</ele>
        <time>2023-04-25T13:25:55Z</time>
      </trkpt>
      <trkpt lat="44.42772" lon="1.28607">
        <ele>262</ele>
        <time>2023-04-25T13:25:58Z</time>
      </trkpt>
      <trkpt lat="44.4278" lon="1.28587">
        <ele>265</ele>
        <time>2023-04-25T13:26:20Z</time>
      </trkpt>
      <trkpt lat="44.42771" lon="1.28588">
        <ele>264</ele>
        <time>2023-04-25T13:26:32Z</time>
      </trkpt>
      <trkpt lat="44.42768" lon="1.28596">
        <ele>264</ele>
        <time>2023-04-25T13:26:41Z</time>
      </trkpt>
      <trkpt lat="44.42768" lon="1.28593">
        <ele>264</ele>
        <time>2023-04-25T13:26:44Z</time>
      </trkpt>
      <trkpt lat="44.42766" lon="1.28595">
        <ele>264</ele>
        <time>2023-04-25T13:26:47Z</time>
      </trkpt>
      <trkpt lat="44.42769" lon="1.28589">
        <ele>264</ele>
        <time>2023-04-25T13:26:54Z</time>
      </trkpt>
    </trkseg>
  </trk>
</gpx>